Another Hard Day at the Office Weather Stats

 
 
 

High monthly outside Temperature, 22.8 , C
Low monthly outside Temperature, -1.0 , C
High yearly outside Temperature, 30.9 , C
Low yearly outside Temperature, -2.2 , C

Low monthly barometer, 1001.1 , mb
High monthly barometer, 1028.0 , mb
Low yearly barometer, 975.0 , mb
High yearly barometer 1041.1 , mb

High wind speed, 25.0 , mph
Time of High wind speed, 21:37 , mph
High monthly wind speed, 47.0 , mph
High yearly wind speed, 55.0 , mph

 

 




3126
                    Temp     Hi    Low   Out    Dew  Wind  Wind   Wind    Hi    Hi   Wind   Heat    THW                Rain    Heat    Cool    In     In    In     In     In   In Air  Wind  Wind    ISS   Arc.
  Date    Time     Out   Temp   Temp   Hum    Pt. Speed   Dir    Run Speed   Dir  Chill  Index  Index   Bar    Rain  Rate    D-D     D-D    Temp   Hum    Dew   Heat    EMC Density  Samp   Tx   Recept  Int.
---------------------------------------------------------------------------------------------------------------------------------------------------------------------------------------------------------------
29/08/16   0:05   17.1   17.1   17.1    93   15.9   2.0   WNW   0.17   4.0   WNW   17.1   17.4   17.4  1015.7  0.00  0.00   0.004   0.000   25.7    63   18.1   26.4  11.38  .0724    115    1    100.0    5 
29/08/16   0:10   17.1   17.1   17.1    93   15.9   0.0   WNW   0.00   3.0   WNW   17.1   17.4   17.4  1015.7  0.00  0.00   0.004   0.000   25.7    62   17.8   26.3  11.19  .0725    117    1    100.0    5 
29/08/16   0:15   16.9   17.1   16.9    93   15.8   0.0   WNW   0.00   1.0   WNW   16.9   17.3   17.3  1015.8  0.00  0.00   0.005   0.000   25.6    61   17.5   26.2  10.99  .0725    117    1    100.0    5 
29/08/16   0:20   16.9   16.9   16.9    93   15.7   0.0   WNW   0.00   1.0   WNW   16.9   17.3   17.3  1015.8  0.00  0.00   0.005   0.000   25.5    61   17.4   26.1  10.99  .0726    115    1    100.0    5 
29/08/16   0:25   16.8   16.9   16.8    92   15.5   0.0   WNW   0.00   1.0   WNW   16.8   17.2   17.2  1015.8  0.00  0.00   0.005   0.000   25.4    61   17.4   26.0  10.99  .0726    117    1    100.0    5 
29/08/16   0:30   16.7   16.8   16.7    92   15.4   0.0   ---   0.00   0.0   ---   16.7   17.1   17.1  1015.9  0.00  0.00   0.006   0.000   25.3    61   17.3   25.9  11.00  .0726    117    1    100.0    5 
29/08/16   0:35   16.6   16.7   16.6    93   15.5   0.0   ---   0.00   0.0   ---   16.6   16.9   16.9  1015.8  0.00  0.00   0.006   0.000   25.3    61   17.2   25.8  11.00  .0726    116    1    100.0    5 
29/08/16   0:40   16.6   16.6   16.6    93   15.4   0.0   ---   0.00   0.0   ---   16.6   16.9   16.9  1016.0  0.00  0.00   0.006   0.000   25.2    61   17.1   25.7  11.00  .0727    116    1    100.0    5 
29/08/16   0:45   16.6   16.6   16.6    93   15.4   0.0   ---   0.00   0.0   ---   16.6   16.9   16.9  1016.0  0.00  0.00   0.006   0.000   25.1    61   17.1   25.6  11.01  .0727    116    1    100.0    5 
29/08/16   0:50   16.6   16.6   16.6    93   15.5   0.0   ---   0.00   0.0   ---   16.6   16.9   16.9  1015.9  0.00  0.00   0.006   0.000   25.0    61   17.0   25.5  11.01  .0727    115    1    100.0    5 
29/08/16   0:55   16.6   16.6   16.6    93   15.5   0.0   ---   0.00   0.0   ---   16.6   16.9   16.9  1015.9  0.00  0.00   0.006   0.000   24.9    61   16.9   25.4  11.01  .0728    117    1    100.0    5 
29/08/16   1:00   16.7   16.7   16.6    93   15.5   0.0   ---   0.00   0.0   ---   16.7   17.0   17.0  1016.0  0.00  0.00   0.006   0.000   24.9    61   16.9   25.4  11.01  .0728    117    1    100.0    5 
29/08/16   1:05   16.7   16.7   16.6    94   15.7   0.0   WNW   0.00   2.0   WNW   16.7   17.1   17.1  1015.9  0.00  0.00   0.006   0.000   24.8    62   17.0   25.3  11.22  .0728    117    1    100.0    5 
29/08/16   1:10   16.7   16.7   16.7    94   15.8   0.0   WNW   0.00   2.0   WNW   16.7   17.1   17.1  1015.9  0.00  0.00   0.006   0.000   24.8    62   17.0   25.3  11.22  .0728    117    1    100.0    5 
29/08/16   1:15   16.8   16.8   16.7    94   15.8   1.0   WNW   0.08   3.0   WNW   16.8   17.2   17.2  1016.0  0.00  0.00   0.005   0.000   24.7    62   16.9   25.2  11.22  .0728    116    1    100.0    5 
29/08/16   1:20   16.8   16.8   16.8    94   15.9   1.0   WNW   0.08   4.0   WNW   16.8   17.2   17.2  1015.9  0.00  0.00   0.005   0.000   24.7    62   16.9   25.2  11.22  .0728    117    1    100.0    5 
29/08/16   1:25   16.8   16.8   16.8    94   15.9   1.0   WNW   0.08   4.0   WNW   16.8   17.2   17.2  1015.8  0.00  0.00   0.005   0.000   24.6    62   16.8   25.1  11.22  .0728    117    1    100.0    5 
29/08/16   1:30   16.8   16.8   16.8    94   15.9   1.0   WNW   0.08   4.0   WNW   16.8   17.2   17.2  1015.8  0.00  0.00   0.005   0.000   24.6    62   16.8   25.1  11.23  .0729    117    1    100.0    5 
29/08/16   1:35   16.8   16.8   16.8    94   15.9   2.0   WNW   0.17   4.0   WNW   16.8   17.2   17.2  1015.8  0.00  0.00   0.005   0.000   24.5    62   16.7   25.0  11.23  .0729    116    1    100.0    5 
29/08/16   1:40   16.8   16.8   16.8    94   15.8   2.0   WNW   0.17   4.0   WNW   16.8   17.2   17.2  1015.9  0.00  0.00   0.005   0.000   24.4    62   16.7   24.9  11.23  .0729    117    1    100.0    5 
29/08/16   1:45   16.7   16.8   16.7    94   15.8   1.0   WNW   0.08   3.0   WNW   16.7   17.1   17.1  1015.9  0.00  0.00   0.006   0.000   24.4    62   16.6   24.9  11.23  .0729    117    1    100.0    5 
29/08/16   1:50   16.7   16.7   16.7    94   15.8   1.0   WNW   0.08   3.0   WNW   16.7   17.1   17.1  1015.9  0.00  0.00   0.006   0.000   24.4    62   16.6   24.9  11.23  .0729    116    1    100.0    5 
29/08/16   1:55   16.7   16.7   16.7    94   15.7   1.0   WNW   0.08   3.0   WNW   16.7   17.1   17.1  1015.9  0.00  0.00   0.006   0.000   24.3    62   16.6   24.8  11.23  .0729    116    1    100.0    5 
29/08/16   2:00   16.6   16.7   16.6    94   15.6   1.0   WNW   0.08   3.0   WNW   16.6   16.9   16.9  1016.0  0.00  0.00   0.006   0.000   24.3    62   16.5   24.8  11.24  .0730    117    1    100.0    5 
29/08/16   2:05   16.6   16.7   16.6    94   15.6   1.0   WNW   0.08   3.0   WNW   16.6   16.9   16.9  1016.1  0.00  0.00   0.006   0.000   24.2    62   16.5   24.8  11.24  .0730    117    1    100.0    5 
29/08/16   2:10   16.6   16.7   16.6    94   15.6   1.0   WNW   0.08   3.0   WNW   16.6   16.9   16.9  1016.1  0.00  0.00   0.006   0.000   24.2    63   16.7   24.8  11.44  .0730    118    1    100.0    5 
29/08/16   2:15   16.6   16.6   16.6    94   15.6   0.0   WNW   0.00   1.0   WNW   16.6   16.9   16.9  1016.0  0.00  0.00   0.006   0.000   24.1    63   16.6   24.7  11.44  .0730    117    1    100.0    5 
29/08/16   2:20   16.6   16.6   16.6    94   15.6   1.0   WNW   0.08   3.0   WNW   16.6   16.9   16.9  1016.1  0.00  0.00   0.006   0.000   24.1    63   16.6   24.7  11.44  .0730    116    1    100.0    5 
29/08/16   2:25   16.6   16.6   16.5    94   15.6   2.0   WNW   0.17   4.0   WNW   16.6   16.9   16.9  1016.2  0.00  0.00   0.006   0.000   24.0    63   16.5   24.6  11.45  .0730    117    1    100.0    5 
29/08/16   2:30   16.6   16.6   16.6    94   15.6   3.0   WNW   0.25   4.0   WNW   16.6   16.9   16.9  1016.3  0.00  0.00   0.006   0.000   23.9    63   16.5   24.6  11.45  .0731    117    1    100.0    5 
29/08/16   2:35   16.6   16.6   16.6    94   15.6   2.0     W   0.17   4.0     W   16.6   16.9   16.9  1016.2  0.00  0.00   0.006   0.000   23.9    63   16.5   24.6  11.45  .0731    117    1    100.0    5 
29/08/16   2:40   16.6   16.6   16.6    94   15.6   1.0     W   0.08   4.0     W   16.6   16.9   16.9  1016.2  0.00  0.00   0.006   0.000   23.9    63   16.4   24.5  11.45  .0731    117    1    100.0    5 
29/08/16   2:45   16.6   16.6   16.6    94   15.6   1.0     W   0.08   4.0   WNW   16.6   16.9   16.9  1016.2  0.00  0.00   0.006   0.000   23.8    63   16.4   24.4  11.45  .0731    116    1    100.0    5 
29/08/16   2:50   16.6   16.6   16.6    94   15.6   1.0    NW   0.08   3.0    NW   16.6   16.9   16.9  1016.2  0.00  0.00   0.006   0.000   23.8    63   16.3   24.4  11.45  .0731    117    1    100.0    5 
29/08/16   2:55   16.6   16.6   16.6    94   15.6   2.0    NW   0.17   4.0    NW   16.6   16.9   16.9  1016.3  0.00  0.00   0.006   0.000   23.7    63   16.3   24.3  11.46  .0731    116    1    100.0    5 
29/08/16   3:00   16.5   16.6   16.5    94   15.5   2.0    NW   0.17   4.0    NW   16.5   16.8   16.8  1016.3  0.00  0.00   0.006   0.000   23.7    64   16.5   24.3  11.65  .0731    116    1    100.0    5 
29/08/16   3:05   16.4   16.5   16.4    94   15.5   1.0    NW   0.08   3.0    NW   16.4   16.8   16.8  1016.4  0.00  0.00   0.007   0.000   23.6    64   16.4   24.3  11.65  .0732    117    1    100.0    5 
29/08/16   3:10   16.4   16.5   16.4    95   15.6   1.0    NW   0.08   3.0    NW   16.4   16.8   16.8  1016.4  0.00  0.00   0.007   0.000   23.6    64   16.3   24.2  11.65  .0732    118    1    100.0    5 
29/08/16   3:15   16.4   16.4   16.4    95   15.6   0.0    NW   0.00   3.0    NW   16.4   16.7   16.7  1016.5  0.00  0.00   0.007   0.000   23.5    64   16.3   24.1  11.65  .0732    117    1    100.0    5 
29/08/16   3:20   16.4   16.4   16.4    95   15.6   1.0    NW   0.08   3.0    NW   16.4   16.7   16.7  1016.5  0.00  0.00   0.007   0.000   23.4    64   16.2   24.1  11.65  .0732    117    1    100.0    5 
29/08/16   3:25   16.4   16.4   16.3    95   15.6   1.0    NW   0.08   3.0    NW   16.4   16.7   16.7  1016.6  0.00  0.00   0.007   0.000   23.4    64   16.2   24.1  11.65  .0732    117    1    100.0    5 
29/08/16   3:30   16.3   16.4   16.3    95   15.5   1.0    NW   0.08   5.0    NW   16.3   16.7   16.7  1016.7  0.00  0.00   0.007   0.000   23.4    64   16.2   24.0  11.65  .0733    116    1    100.0    5 
29/08/16   3:35   16.4   16.4   16.3    95   15.6   2.0    NW   0.17   5.0    NW   16.4   16.7   16.7  1016.8  0.00  0.00   0.007   0.000   23.3    64   16.1   23.9  11.65  .0733    116    1    100.0    5 
29/08/16   3:40   16.4   16.4   16.4    95   15.6   2.0    NW   0.17   5.0    NW   16.4   16.8   16.8  1016.9  0.00  0.00   0.007   0.000   23.3    64   16.1   23.9  11.65  .0733    116    1    100.0    5 
29/08/16   3:45   16.4   16.4   16.4    95   15.6   3.0    NW   0.25   6.0    NW   16.4   16.8   16.8  1016.9  0.00  0.00   0.007   0.000   23.2    64   16.0   23.8  11.65  .0733    117    1    100.0    5 
29/08/16   3:50   16.4   16.4   16.4    95   15.6   3.0    NW   0.25   6.0    NW   16.4   16.8   16.8  1016.9  0.00  0.00   0.007   0.000   23.2    64   16.0   23.8  11.65  .0733    117    1    100.0    5 
29/08/16   3:55   16.4   16.4   16.4    95   15.6   3.0    NW   0.25   5.0    NW   16.4   16.8   16.8  1017.0  0.00  0.00   0.007   0.000   23.1    65   16.2   23.7  11.85  .0733    117    1    100.0    5 
29/08/16   4:00   16.4   16.5   16.4    95   15.6   3.0    NW   0.25   7.0   NNW   16.4   16.8   16.8  1017.0  0.00  0.00   0.007   0.000   23.1    65   16.2   23.7  11.85  .0733    117    1    100.0    5 
29/08/16   4:05   16.5   16.5   16.4    95   15.7   4.0   NNW   0.33   9.0   NNW   16.5   16.8   16.8  1016.9  0.00  0.00   0.006   0.000   23.1    65   16.1   23.6  11.85  .0734    117    1    100.0    5 
29/08/16   4:10   16.5   16.5   16.5    95   15.7   5.0   NNW   0.42   7.0    NW   16.5   16.8   16.8  1016.9  0.00  0.00   0.006   0.000   23.0    65   16.1   23.5  11.85  .0734    116    1    100.0    5 
29/08/16   4:15   16.5   16.5   16.5    95   15.7   4.0   NNW   0.33   6.0   NNW   16.5   16.8   16.8  1016.9  0.00  0.00   0.006   0.000   22.9    65   16.0   23.4  11.85  .0734    118    1    100.0    5 
29/08/16   4:20   16.5   16.5   16.5    95   15.7   3.0   NNW   0.25   6.0     N   16.5   16.8   16.8  1017.0  0.00  0.00   0.006   0.000   22.9    65   16.0   23.3  11.85  .0734    117    1    100.0    5 
29/08/16   4:25   16.5   16.5   16.5    95   15.7   3.0     N   0.25   7.0     N   16.5   16.8   16.8  1017.0  0.00  0.00   0.006   0.000   22.8    65   15.9   23.2  11.85  .0734    117    1    100.0    5 
29/08/16   4:30   16.5   16.5   16.5    95   15.7   3.0     N   0.25   7.0   NNE   16.5   16.8   16.8  1017.0  0.00  0.00   0.006   0.000   22.8    65   15.9   23.2  11.85  .0735    117    1    100.0    5 
29/08/16   4:35   16.4   16.5   16.4    95   15.6   4.0     N   0.33   6.0   NNE   16.4   16.8   16.8  1017.0  0.00  0.00   0.007   0.000   22.8    65   15.9   23.2  11.85  .0735     46    1     40.4    5 
29/08/16   4:40   16.4   16.4   16.4    95   15.6   4.0     N   0.33   7.0   NNE   16.4   16.8   16.8  1017.1  0.00  0.00   0.007   0.000   22.6    66   15.9   23.0  12.10  .0735    116    1    100.0    5 
29/08/16   4:45   16.4   16.4   16.4    95   15.6   3.0     N   0.25   6.0     N   16.4   16.7   16.7  1017.1  0.00  0.00   0.007   0.000   22.4    66   15.7   22.7  12.10  .0736    117    1    100.0    5 
29/08/16   4:50   16.3   16.4   16.3    95   15.5   2.0     N   0.17   5.0     N   16.3   16.7   16.7  1017.2  0.00  0.00   0.007   0.000   22.2    66   15.6   22.4  12.11  .0736    117    1    100.0    5 
29/08/16   4:55   16.3   16.4   16.3    95   15.5   2.0     N   0.17   5.0     N   16.3   16.7   16.7  1017.2  0.00  0.00   0.007   0.000   22.1    67   15.6   22.3  12.32  .0737    116    1    100.0    5 
29/08/16   5:00   16.3   16.4   16.3    95   15.5   2.0     N   0.17   4.0     N   16.3   16.7   16.7  1017.2  0.00  0.00   0.007   0.000   21.9    67   15.5   22.1  12.32  .0737    117    1    100.0    5 
29/08/16   5:05   16.3   16.4   16.3    95   15.5   2.0     N   0.17   8.0     N   16.3   16.7   16.7  1017.3  0.00  0.00   0.007   0.000   21.9    67   15.5   22.0  12.32  .0737    117    1    100.0    5 
29/08/16   5:10   16.4   16.4   16.3    95   15.6   4.0   NNW   0.33   8.0     N   16.4   16.7   16.7  1017.3  0.00  0.00   0.007   0.000   21.8    67   15.4   21.9  12.33  .0738    117    1    100.0    5 
29/08/16   5:15   16.4   16.4   16.3    95   15.6   3.0   NNW   0.25   6.0   NNW   16.4   16.7   16.7  1017.4  0.00  0.00   0.007   0.000   21.7    68   15.6   21.8  12.55  .0738    116    1    100.0    5 
29/08/16   5:20   16.3   16.4   16.3    95   15.5   1.0    NW   0.08   4.0    NW   16.3   16.7   16.7  1017.5  0.00  0.00   0.007   0.000   21.6    68   15.4   21.7  12.55  .0738    118    1    100.0    5 
29/08/16   5:25   16.3   16.4   16.3    95   15.5   1.0    NW   0.08   5.0    NW   16.3   16.7   16.7  1017.6  0.00  0.00   0.007   0.000   21.6    68   15.4   21.7  12.55  .0738    117    1    100.0    5 
29/08/16   5:30   16.3   16.3   16.3    95   15.5   3.0    NW   0.25   6.0    NW   16.3   16.7   16.7  1017.6  0.00  0.00   0.007   0.000   21.6    68   15.4   21.6  12.55  .0738    116    1    100.0    5 
29/08/16   5:35   16.3   16.3   16.3    95   15.5   2.0    NW   0.17   4.0    NW   16.3   16.7   16.7  1017.8  0.00  0.00   0.007   0.000   21.4    68   15.3   21.5  12.55  .0739    117    1    100.0    5 
29/08/16   5:40   16.3   16.4   16.3    95   15.5   3.0    NW   0.25   6.0    NW   16.3   16.7   16.7  1017.8  0.00  0.00   0.007   0.000   21.4    69   15.5   21.5  12.84  .0739    117    1    100.0    5 
29/08/16   5:45   16.4   16.4   16.3    95   15.6   2.0    NW   0.17   6.0    NW   16.4   16.7   16.7  1017.9  0.00  0.00   0.007   0.000   21.4    69   15.5   21.5  12.84  .0739    117    1    100.0    5 
29/08/16   5:50   16.4   16.4   16.3    95   15.6   3.0    NW   0.25   7.0    NW   16.4   16.7   16.7  1018.1  0.00  0.00   0.007   0.000   21.3    69   15.4   21.4  12.84  .0739    117    1    100.0    5 
29/08/16   5:55   16.3   16.4   16.3    95   15.5   4.0    NW   0.33   6.0    NW   16.3   16.7   16.7  1018.1  0.00  0.00   0.007   0.000   21.3    69   15.4   21.3  12.84  .0740    117    1    100.0    5 
29/08/16   6:00   16.3   16.4   16.3    95   15.5   3.0    NW   0.25   5.0    NW   16.3   16.7   16.7  1018.3  0.00  0.00   0.007   0.000   21.2    69   15.3   21.3  12.85  .0740    117    1    100.0    5 
29/08/16   6:05   16.3   16.3   16.3    95   15.5   3.0   NNW   0.25   6.0   NNW   16.3   16.7   16.7  1018.4  0.00  0.00   0.007   0.000   21.2    69   15.3   21.2  12.85  .0740    116    1    100.0    5 
29/08/16   6:10   16.3   16.3   16.3    95   15.5   3.0   NNW   0.25   6.0   NNW   16.3   16.7   16.7  1018.5  0.00  0.00   0.007   0.000   21.1    69   15.2   21.1  12.85  .0740    117    1    100.0    5 
29/08/16   6:15   16.3   16.3   16.3    95   15.5   4.0   NNW   0.33   8.0   NNW   16.3   16.7   16.7  1018.6  0.00  0.00   0.007   0.000   21.1    70   15.4   21.1  13.15  .0740    117    1    100.0    5 
29/08/16   6:20   16.3   16.3   16.3    95   15.5   4.0   NNW   0.33   6.0    NW   16.3   16.7   16.7  1018.7  0.00  0.00   0.007   0.000   21.0    70   15.3   21.1  13.16  .0741    118    1    100.0    5 
29/08/16   6:25   16.3   16.3   16.3    95   15.5   4.0    NW   0.33   6.0    NW   16.3   16.6   16.6  1018.9  0.00  0.00   0.007   0.000   20.9    70   15.3   21.1  13.16  .0741    117    1    100.0    5 
29/08/16   6:30   16.3   16.3   16.3    95   15.5   4.0   NNW   0.33   7.0   NNW   16.3   16.6   16.6  1018.9  0.00  0.00   0.007   0.000   20.9    70   15.2   21.0  13.17  .0741    117    1    100.0    5 
29/08/16   6:35   16.3   16.3   16.3    95   15.5   5.0   NNW   0.42   8.0     N   16.3   16.6   16.6  1019.0  0.00  0.00   0.007   0.000   20.8    70   15.2   21.0  13.17  .0741    117    1    100.0    5 
29/08/16   6:40   16.3   16.3   16.3    95   15.5   5.0   NNW   0.42   8.0   NNW   16.3   16.6   16.6  1019.0  0.00  0.00   0.007   0.000   20.8    70   15.1   20.9  13.17  .0742    117    1    100.0    5 
29/08/16   6:45   16.3   16.3   16.2    95   15.5   5.0   NNW   0.42  10.0     N   16.3   16.6   16.6  1019.1  0.00  0.00   0.007   0.000   20.8    70   15.1   20.9  13.17  .0742    116    1    100.0    5 
29/08/16   6:50   16.2   16.3   16.2    95   15.4   5.0   NNW   0.42   9.0   NNW   16.2   16.5   16.5  1019.2  0.00  0.00   0.007   0.000   20.7    70   15.0   20.8  13.18  .0742    116    1    100.0    5 
29/08/16   6:55   16.2   16.2   16.2    95   15.4   4.0   NNW   0.33   7.0   NNW   16.2   16.5   16.5  1019.2  0.00  0.00   0.007   0.000   20.7    70   15.0   20.8  13.18  .0742    117    1    100.0    5 
29/08/16   7:00   16.2   16.2   16.2    95   15.4   4.0     N   0.33   7.0   NNW   16.2   16.5   16.5  1019.2  0.00  0.00   0.007   0.000   20.6    71   15.2   20.9  13.47  .0742    117    1    100.0    5 
29/08/16   7:05   16.2   16.2   16.2    94   15.3   6.0     N   0.50   9.0     N   16.1   16.5   16.4  1019.3  0.00  0.00   0.007   0.000   20.6    71   15.1   20.8  13.47  .0742    117    1    100.0    5 
29/08/16   7:10   16.2   16.2   16.2    94   15.2   7.0     N   0.58  12.0     N   15.8   16.4   16.1  1019.3  0.00  0.00   0.008   0.000   20.5    71   15.1   20.8  13.47  .0743    117    1    100.0    5 
29/08/16   7:15   16.1   16.2   16.1    94   15.1   7.0     N   0.58  13.0     N   15.8   16.4   16.1  1019.4  0.00  0.00   0.008   0.000   20.4    71   15.0   20.7  13.47  .0743    117    1    100.0    5 
29/08/16   7:20   16.1   16.1   16.1    94   15.1   7.0   NNE   0.58  11.0   NNE   15.7   16.3   16.0  1019.4  0.00  0.00   0.008   0.000   20.4    71   15.0   20.7  13.48  .0743    117    1    100.0    5 
29/08/16   7:25   16.0   16.1   16.0    94   15.0   6.0   NNE   0.50  11.0   NNE   15.9   16.3   16.2  1019.5  0.00  0.00   0.008   0.000   20.3    70   14.6   20.6  13.21  .0744    118    1    100.0    5 
29/08/16   7:30   16.0   16.0   16.0    94   15.0   6.0   NNE   0.50  11.0     N   15.9   16.3   16.2  1019.5  0.00  0.00   0.008   0.000   20.2    70   14.6   20.5  13.21  .0744    117    1    100.0    5 
29/08/16   7:35   15.9   16.0   15.9    94   15.0   8.0   NNE   0.67  13.0   NNE   15.2   16.2   15.4  1019.5  0.00  0.00   0.008   0.000   20.2    71   14.7   20.5  13.48  .0744    117    1    100.0    5 
29/08/16   7:40   16.0   16.0   15.9    94   15.0   7.0   NNE   0.58  10.0   NNE   15.7   16.3   15.9  1019.5  0.00  0.00   0.008   0.000   20.1    70   14.5   20.4  13.22  .0744    117    1    100.0    5 
29/08/16   7:45   16.1   16.1   16.0    94   15.1   6.0   NNE   0.50  10.0   NNE   15.9   16.3   16.2  1019.6  0.00  0.00   0.008   0.000   20.1    71   14.6   20.4  13.49  .0744    117    1    100.0    5 
29/08/16   7:50   16.2   16.2   16.1    94   15.2   6.0   NNE   0.50  10.0   NNE   16.1   16.4   16.3  1019.6  0.00  0.00   0.008   0.000   20.0    71   14.6   20.4  13.49  .0744    116    1    100.0    5 
29/08/16   7:55   16.2   16.2   16.2    94   15.2   8.0   NNE   0.67  11.0   NNE   15.4   16.4   15.7  1019.6  0.00  0.00   0.008   0.000   19.9    71   14.5   20.3  13.49  .0745    116    1    100.0    5 
29/08/16   8:00   16.2   16.2   16.2    94   15.3   7.0   NNE   0.58  11.0    NE   15.9   16.5   16.2  1019.6  0.00  0.00   0.007   0.000   19.9    71   14.5   20.2  13.49  .0745    116    1    100.0    5 
29/08/16   8:05   16.3   16.3   16.2    94   15.3   7.0   NNE   0.58  11.0   NNE   16.0   16.6   16.3  1019.6  0.00  0.00   0.007   0.000   19.8    71   14.4   20.2  13.50  .0745    115    1    100.0    5 
29/08/16   8:10   16.3   16.3   16.3    94   15.3   7.0   NNE   0.58  12.0   NNE   16.0   16.6   16.3  1019.7  0.00  0.00   0.007   0.000   19.8    71   14.4   20.1  13.50  .0745    117    1    100.0    5 
29/08/16   8:15   16.4   16.4   16.3    94   15.4   6.0   NNE   0.50  10.0   NNE   16.3   16.7   16.7  1019.7  0.00  0.00   0.007   0.000   19.8    71   14.4   20.1  13.50  .0745    117    1    100.0    5 
29/08/16   8:20   16.4   16.4   16.4    93   15.3   8.0   NNE   0.67  13.0   NNE   15.7   16.7   16.0  1019.8  0.00  0.00   0.007   0.000   19.7    71   14.3   20.1  13.50  .0746    116    1    100.0    5 
29/08/16   8:25   16.4   16.4   16.4    93   15.3   8.0   NNE   0.67  12.0   NNE   15.8   16.8   16.1  1019.9  0.00  0.00   0.007   0.000   19.7    71   14.3   19.9  13.50  .0746    117    1    100.0    5 
29/08/16   8:30   16.4   16.4   16.4    93   15.3   7.0   NNE   0.58  11.0    NE   16.2   16.8   16.6  1019.9  0.00  0.00   0.007   0.000   19.7    72   14.5   20.0  13.75  .0746    118    1    100.0    5 
29/08/16   8:35   16.5   16.6   16.4    93   15.4   6.0   NNE   0.50  12.0   NNE   16.4   16.8   16.8  1020.0  0.00  0.00   0.006   0.000   19.6    72   14.4   19.9  13.75  .0746    117    1    100.0    5 
29/08/16   8:40   16.6   16.6   16.5    93   15.5   5.0   NNE   0.42   8.0   NNE   16.6   16.9   16.9  1020.2  0.00  0.00   0.006   0.000   19.6    72   14.4   19.9  13.75  .0746    117    1    100.0    5 
29/08/16   8:45   16.7   16.7   16.6    92   15.4   5.0   NNE   0.42  11.0   NNE   16.7   17.0   17.0  1020.2  0.00  0.00   0.006   0.000   19.6    72   14.4   19.9  13.75  .0746    116    1    100.0    5 
29/08/16   8:50   16.7   16.7   16.7    92   15.4   4.0     N   0.33   8.0     N   16.7   17.1   17.1  1020.3  0.00  0.00   0.006   0.000   19.7    72   14.5   20.0  13.75  .0746    116    1    100.0    5 
29/08/16   8:55   16.7   16.7   16.7    92   15.4   6.0     N   0.50  12.0     N   16.7   17.1   17.1  1020.4  0.00  0.00   0.006   0.000   19.8    72   14.6   20.2  13.75  .0745    117    1    100.0    5 
29/08/16   9:00   16.7   16.7   16.7    91   15.2   6.0     N   0.50  10.0     N   16.7   17.1   17.1  1020.4  0.00  0.00   0.006   0.000   20.1    71   14.6   20.4  13.49  .0745    117    1    100.0    5 
29/08/16   9:05   16.7   16.7   16.7    91   15.2   7.0     N   0.58  10.0     N   16.6   17.1   16.9  1020.5  0.00  0.00   0.006   0.000   20.2    71   14.7   20.5  13.48  .0745    115    1    100.0    5 
29/08/16   9:10   16.8   16.8   16.7    91   15.3   6.0     N   0.50  11.0     N   16.8   17.1   17.1  1020.5  0.00  0.00   0.005   0.000   20.3    71   14.9   20.7  13.48  .0744    116    1    100.0    5 
29/08/16   9:15   16.8   16.8   16.8    91   15.3   6.0     N   0.50  10.0     N   16.8   17.1   17.1  1020.6  0.00  0.00   0.005   0.000   20.4    71   15.0   20.7  13.47  .0744    117    1    100.0    5 
29/08/16   9:20   16.8   16.8   16.8    91   15.3   6.0   NNW   0.50  10.0     N   16.8   17.1   17.1  1020.7  0.00  0.00   0.005   0.000   20.6    70   14.9   20.8  13.19  .0744    114    1    100.0    5 
29/08/16   9:25   16.8   16.8   16.8    91   15.4   5.0   NNW   0.42   9.0   NNW   16.8   17.2   17.2  1020.6  0.00  0.00   0.005   0.000   20.7    71   15.2   20.9  13.47  .0743    114    1    100.0    5 
29/08/16   9:30   16.8   16.8   16.8    91   15.4   6.0     N   0.50   9.0     N   16.8   17.2   17.2  1020.7  0.00  0.00   0.005   0.000   20.8    70   15.2   21.0  13.17  .0743    118    1    100.0    5 
29/08/16   9:35   16.9   16.9   16.8    91   15.4   5.0     N   0.42   8.0     N   16.9   17.2   17.2  1020.7  0.00  0.00   0.005   0.000   20.9    70   15.2   21.0  13.17  .0743    117    1    100.0    5 
29/08/16   9:40   17.0   17.0   16.9    91   15.5   5.0     N   0.42   8.0     N   17.0   17.3   17.3  1020.8  0.00  0.00   0.005   0.000   21.0    70   15.3   21.1  13.16  .0742    117    1    100.0    5 
29/08/16   9:45   17.4   17.4   17.1    92   16.1   6.0   NNE   0.50  10.0     N   17.4   17.9   17.9  1020.8  0.00  0.00   0.003   0.000   21.1    70   15.4   21.1  13.15  .0742    116    1    100.0    5 
29/08/16   9:50   17.8   17.8   17.4    91   16.3   5.0     N   0.42  11.0     N   17.8   18.2   18.2  1020.8  0.00  0.00   0.002   0.000   21.1    69   15.2   21.1  12.85  .0742    116    1    100.0    5 
29/08/16   9:55   18.2   18.2   17.8    91   16.7   7.0     N   0.58  13.0     N   18.2   18.8   18.8  1020.8  0.00  0.00   0.000   0.000   21.2    69   15.3   21.2  12.85  .0742    117    1    100.0    5 
29/08/16  10:00   18.4   18.4   18.2    89   16.5   6.0     N   0.50  11.0   NNW   18.4   18.9   18.9  1020.9  0.00  0.00   0.000   0.000   21.2    69   15.3   21.3  12.85  .0742    117    1    100.0    5 
29/08/16  10:05   18.6   18.6   18.4    89   16.8   7.0     N   0.58  12.0   NNE   18.6   19.2   19.2  1020.9  0.00  0.00   0.000   0.001   21.3    68   15.1   21.3  12.55  .0742    117    1    100.0    5 
29/08/16  10:10   19.0   19.0   18.7    88   17.0   5.0     N   0.42  13.0   NNW   19.0   19.7   19.7  1020.9  0.00  0.00   0.000   0.002   21.3    68   15.1   21.3  12.55  .0742    116    1    100.0    5 
29/08/16  10:15   19.1   19.1   19.0    87   16.9   7.0     N   0.58  12.0     N   19.1   19.8   19.8  1020.9  0.00  0.00   0.000   0.003   21.3    68   15.2   21.3  12.55  .0742    116    1    100.0    5 
29/08/16  10:20   19.3   19.3   19.1    85   16.7   6.0     N   0.50  10.0   NNE   19.3   19.9   19.9  1021.0  0.00  0.00   0.000   0.003   21.4    68   15.3   21.5  12.55  .0741    115    1    100.0    5 
29/08/16  10:25   19.4   19.4   19.3    85   16.9   6.0     N   0.50  14.0     N   19.4   20.2   20.2  1021.0  0.00  0.00   0.000   0.004   21.4    68   15.3   21.5  12.55  .0741    117    1    100.0    5 
29/08/16  10:30   19.7   19.7   19.4    83   16.7  10.0   NNE   0.83  18.0   NNE   18.6   20.4   19.3  1021.2  0.00  0.00   0.000   0.005   21.5    67   15.1   21.5  12.34  .0741    117    1    100.0    5 
29/08/16  10:35   19.8   19.8   19.7    83   16.9   9.0     N   0.75  14.0     N   19.1   20.6   19.8  1021.2  0.00  0.00   0.000   0.005   21.6    67   15.2   21.6  12.33  .0741    118    1    100.0    5 
29/08/16  10:40   20.0   20.0   19.8    82   16.8   7.0     N   0.58  13.0     N   20.0   20.8   20.8  1021.3  0.00  0.00   0.000   0.006   21.6    67   15.2   21.7  12.33  .0741    116    1    100.0    5 
29/08/16  10:45   19.8   20.0   19.8    80   16.2   7.0   NNW   0.58  11.0   NNW   19.8   20.4   20.4  1021.3  0.00  0.00   0.000   0.005   21.7    67   15.3   21.7  12.33  .0741    117    1    100.0    5 
29/08/16  10:50   20.0   20.0   19.8    81   16.6   5.0   NNW   0.42   9.0     N   20.0   20.7   20.7  1021.4  0.00  0.00   0.000   0.006   21.7    67   15.3   21.8  12.33  .0741    117    1    100.0    5 
29/08/16  10:55   20.4   20.4   20.0    81   17.1   6.0     N   0.50   9.0     N   20.4   21.3   21.3  1021.4  0.00  0.00   0.000   0.007   21.8    67   15.4   21.9  12.33  .0741    117    1    100.0    5 
29/08/16  11:00   20.6   20.6   20.4    78   16.6   6.0     N   0.50  10.0     N   20.6   21.3   21.3  1021.4  0.00  0.00   0.000   0.008   21.9    66   15.2   22.0  12.12  .0741    117    1    100.0    5 
29/08/16  11:05   20.5   20.6   20.5    76   16.1   5.0     N   0.42   9.0     N   20.5   21.1   21.1  1021.5  0.00  0.00   0.000   0.008   21.9    66   15.3   22.1  12.12  .0740    116    1    100.0    5 
29/08/16  11:10   20.6   20.6   20.5    76   16.2   6.0   NNW   0.50  10.0   NNW   20.6   21.2   21.2  1021.5  0.00  0.00   0.000   0.008   22.0    66   15.4   22.1  12.12  .0740    117    1    100.0    5 
29/08/16  11:15   20.8   20.8   20.6    76   16.4   6.0   NNW   0.50  10.0   NNW   20.8   21.3   21.3  1021.5  0.00  0.00   0.000   0.008   22.1    66   15.5   22.3  12.11  .0740    117    1    100.0    5 
29/08/16  11:20   21.3   21.3   20.8    78   17.3   6.0     N   0.50  10.0   NNE   21.3   21.9   21.9  1021.5  0.00  0.00   0.000   0.010   22.2    65   15.3   22.3  11.85  .0740    116    1    100.0    5 
29/08/16  11:25   21.8   21.8   21.3    76   17.4   6.0   NNE   0.50  11.0     N   21.8   22.4   22.4  1021.6  0.00  0.00   0.000   0.012   22.2    65   15.3   22.4  11.85  .0740    117    1    100.0    5 
29/08/16  11:30   22.1   22.1   21.8    74   17.3   5.0   NNE   0.42   9.0   NNE   22.1   22.6   22.6  1021.5  0.00  0.00   0.000   0.013   22.3    65   15.4   22.4  11.85  .0740    117    1    100.0    5 
29/08/16  11:35   22.3   22.3   22.1    73   17.2   3.0     N   0.25   7.0    NW   22.3   22.8   22.8  1021.5  0.00  0.00   0.000   0.014   22.3    65   15.4   22.6  11.85  .0739    118    1    100.0    5 
29/08/16  11:40   22.6   22.6   22.3    73   17.5   2.0     N   0.17   7.0     N   22.6   23.3   23.3  1021.6  0.00  0.00   0.000   0.015   22.4    65   15.5   22.6  11.85  .0739    117    1    100.0    5 
29/08/16  11:45   22.7   22.8   22.6    69   16.7   5.0    NW   0.42   9.0    NW   22.7   23.2   23.2  1021.5  0.00  0.00   0.000   0.015   22.5    65   15.6   22.8  11.85  .0739    116    1    100.0    5 
29/08/16  11:50   22.4   22.7   22.4    71   16.9   3.0    NW   0.25   7.0   NNW   22.4   22.9   22.9  1021.5  0.00  0.00   0.000   0.014   22.6    65   15.6   22.8  11.85  .0739    117    1    100.0    5 
29/08/16  11:55   22.5   22.6   22.4    71   17.0   2.0    NW   0.17   7.0    NW   22.5   23.1   23.1  1021.5  0.00  0.00   0.000   0.014   22.7    65   15.7   23.0  11.85  .0738    117    1    100.0    5 
29/08/16  12:00   22.4   22.6   22.4    71   16.9   5.0   NNW   0.42   9.0     N   22.4   22.9   22.9  1021.6  0.00  0.00   0.000   0.014   22.7    66   16.0   23.1  12.09  .0738    116    1    100.0    5 
29/08/16  12:05   22.4   22.4   22.4    71   16.9   5.0     N   0.42   8.0   NNW   22.4   22.9   22.9  1021.6  0.00  0.00   0.000   0.014   22.8    66   16.1   23.3  12.09  .0738    116    1    100.0    5 
29/08/16  12:10   22.8   22.8   22.4    70   17.0   4.0   NNE   0.33   7.0   NNE   22.8   23.4   23.4  1021.5  0.00  0.00   0.000   0.015   22.9    66   16.3   23.4  12.08  .0737    117    1    100.0    5 
29/08/16  12:15   23.2   23.2   22.8    70   17.4   3.0     N   0.25   7.0   NNE   23.2   23.9   23.9  1021.4  0.00  0.00   0.000   0.017   23.0    66   16.3   23.6  12.08  .0737    117    1    100.0    5 
29/08/16  12:20   23.7   23.7   23.2    67   17.2   2.0   NNE   0.17   7.0   NNE   23.7   24.4   24.4  1021.4  0.00  0.00   0.000   0.019   23.1    66   16.4   23.7  12.08  .0737    116    1    100.0    5 
29/08/16  12:25   24.0   24.0   23.7    65   17.0   4.0   NNE   0.33   8.0   NNE   24.0   24.7   24.7  1021.4  0.00  0.00   0.000   0.020   23.2    67   16.8   23.9  12.27  .0736    117    1    100.0    5 
29/08/16  12:30   23.9   24.1   23.9    62   16.2   2.0     N   0.17   5.0    NE   23.9   24.5   24.5  1021.4  0.00  0.00   0.000   0.019   23.3    67   16.8   24.0  12.27  .0736    117    1    100.0    5 
29/08/16  12:35   23.6   23.9   23.6    63   16.1   3.0   NNW   0.25   8.0     N   23.6   24.2   24.2  1021.5  0.00  0.00   0.000   0.018   23.4    67   16.9   24.2  12.27  .0735    115    1    100.0    5 
29/08/16  12:40   23.2   23.5   23.2    63   15.8   1.0     N   0.08   6.0     N   23.2   23.7   23.7  1021.4  0.00  0.00   0.000   0.017   23.5    67   17.0   24.3  12.26  .0735    118    1    100.0    5 
29/08/16  12:45   22.7   23.2   22.7    63   15.3   1.0     N   0.08   6.0    SW   22.7   23.0   23.0  1021.5  0.00  0.00   0.000   0.015   23.6    67   17.1   24.3  12.26  .0735    117    1    100.0    5 
29/08/16  12:50   22.1   22.7   22.1    65   15.2   3.0   WNW   0.25   6.0   WSW   22.1   22.2   22.2  1021.5  0.00  0.00   0.000   0.013   23.7    67   17.2   24.4  12.26  .0734    117    1    100.0    5 
29/08/16  12:55   21.6   22.1   21.6    67   15.2   4.0     W   0.33   7.0     W   21.6   21.7   21.7  1021.5  0.00  0.00   0.000   0.011   23.7    66   17.0   24.5  12.06  .0735    117    1    100.0    5 
29/08/16  13:00   21.5   21.6   21.5    70   15.8   0.0   WSW   0.00   3.0   WSW   21.5   21.7   21.7  1021.6  0.00  0.00   0.000   0.011   23.8    66   17.0   24.6  12.05  .0734    117    1    100.0    5 
29/08/16  13:05   21.1   21.5   21.1    70   15.4   5.0   SSW   0.42   7.0     S   21.1   21.1   21.1  1021.6  0.00  0.00   0.000   0.009   23.9    66   17.1   24.7  12.05  .0734    116    1    100.0    5 
29/08/16  13:10   20.7   21.1   20.7    72   15.4   3.0   WSW   0.25   8.0     S   20.7   21.0   21.0  1021.7  0.00  0.00   0.000   0.008   23.9    66   17.2   24.7  12.05  .0734    116    1    100.0    5 
29/08/16  13:15   20.6   20.7   20.6    74   15.8   1.0    NE   0.08   4.0    NE   20.6   21.1   21.1  1021.8  0.00  0.00   0.000   0.008   24.0    66   17.3   24.8  12.05  .0734    116    1    100.0    5 
29/08/16  13:20   20.5   20.6   20.5    73   15.5   2.0   WNW   0.17   7.0    SW   20.5   20.9   20.9  1021.8  0.00  0.00   0.000   0.008   24.1    65   17.1   24.8  11.84  .0734    116    1    100.0    5 
29/08/16  13:25   20.3   20.5   20.3    76   15.9   4.0   WSW   0.33   8.0   WSW   20.3   20.8   20.8  1021.9  0.00  0.00   0.000   0.007   24.2    65   17.2   24.9  11.84  .0734    117    1    100.0    5 
29/08/16  13:30   20.0   20.3   20.0    78   16.0   7.0   WSW   0.58  10.0   WSW   20.0   20.6   20.6  1021.9  0.00  0.00   0.000   0.006   24.2    65   17.2   24.9  11.84  .0733    117    1    100.0    5 
29/08/16  13:35   19.8   20.0   19.8    80   16.3   9.0   WSW   0.75  12.0   WSW   19.1   20.5   19.7  1022.0  0.00  0.00   0.000   0.005   24.2    65   17.2   24.9  11.84  .0733    116    1    100.0    5 
29/08/16  13:40   19.6   19.8   19.6    80   16.0   9.0   WSW   0.75  12.0   WSW   18.8   20.2   19.4  1022.0  0.00  0.00   0.000   0.004   24.3    65   17.3   25.0  11.83  .0733    116    1    100.0    5 
29/08/16  13:45   19.5   19.6   19.5    81   16.2   8.0   WSW   0.67  11.0   WSW   19.2   20.2   19.8  1022.0  0.00  0.00   0.000   0.004   24.4    65   17.4   25.1  11.83  .0733    117    1    100.0    5 
29/08/16  13:50   19.6   19.6   19.5    81   16.2   8.0   WSW   0.67  11.0   WSW   19.2   20.2   19.9  1021.9  0.00  0.00   0.000   0.004   24.4    65   17.4   25.1  11.83  .0733    117    1    100.0    5 
29/08/16  13:55   19.6   19.6   19.5    82   16.5   9.0   WSW   0.75  12.0   WSW   18.9   20.3   19.6  1022.0  0.00  0.00   0.000   0.004   24.4    65   17.4   25.1  11.83  .0733    117    1    100.0    5 
29/08/16  14:00   19.7   19.7   19.6    81   16.3   9.0   WSW   0.75  11.0   WSW   18.9   20.3   19.6  1022.0  0.00  0.00   0.000   0.005   24.5    65   17.5   25.2  11.83  .0733    116    1    100.0    5 
29/08/16  14:05   19.7   19.7   19.7    81   16.4   9.0    SW   0.75  11.0    SW   19.0   20.4   19.7  1021.9  0.00  0.00   0.000   0.005   24.6    65   17.5   25.2  11.83  .0732    117    1    100.0    5 
29/08/16  14:10   19.7   19.7   19.7    81   16.3   9.0   WSW   0.75  11.0    SW   18.9   20.3   19.6  1021.9  0.00  0.00   0.000   0.005   24.6    64   17.3   25.2  11.62  .0732    117    1    100.0    5 
29/08/16  14:15   19.9   19.9   19.7    81   16.6  10.0   WSW   0.83  12.0   WSW   18.8   20.7   19.5  1021.9  0.00  0.00   0.000   0.006   24.7    64   17.4   25.3  11.62  .0732    117    1    100.0    5 
29/08/16  14:20   20.2   20.2   19.9    82   17.0  10.0    SW   0.83  11.0    SW   19.0   21.0   19.8  1022.0  0.00  0.00   0.000   0.006   24.7    64   17.5   25.4  11.62  .0732    117    1    100.0    5 
29/08/16  14:25   20.2   20.2   20.2    81   16.8  11.0   WSW   0.92  12.0   WSW   18.7   20.9   19.5  1022.0  0.00  0.00   0.000   0.006   24.8    64   17.5   25.4  11.62  .0732    117    1    100.0    5 
29/08/16  14:30   20.2   20.3   20.2    81   16.9  10.0    SW   0.83  12.0    SW   19.1   21.0   19.8  1022.0  0.00  0.00   0.000   0.007   24.8    64   17.6   25.5  11.62  .0732    117    1    100.0    5 
29/08/16  14:35   20.3   20.3   20.2    81   16.9  10.0    SW   0.83  12.0    SW   19.1   21.1   19.9  1021.9  0.00  0.00   0.000   0.007   24.9    64   17.6   25.6  11.61  .0731    116    1    100.0    5 
29/08/16  14:40   20.1   20.3   20.1    81   16.7   9.0    SW   0.75  11.0    SW   19.3   20.8   20.1  1021.9  0.00  0.00   0.000   0.006   25.0    64   17.7   25.7  11.61  .0731    117    1    100.0    5 
29/08/16  14:45   19.7   20.1   19.7    82   16.6  10.0    SW   0.83  13.0    SW   18.6   20.4   19.3  1021.9  0.00  0.00   0.000   0.005   25.1    64   17.8   25.7  11.61  .0731    118    1    100.0    5 
29/08/16  14:50   19.5   19.7   19.5    83   16.5  10.0    SW   0.83  13.0    SW   18.4   20.2   19.1  1022.0  0.00  0.00   0.000   0.004   25.1    64   17.8   25.8  11.61  .0731    117    1    100.0    5 
29/08/16  14:55   19.2   19.5   19.2    84   16.5  12.0    SW   1.00  15.0    SW   17.4   19.8   18.0  1022.1  0.00  0.00   0.000   0.003   25.2    64   17.9   25.8  11.60  .0731    117    1    100.0    5 
29/08/16  15:00   19.2   19.2   19.1    85   16.6  11.0    SW   0.92  14.0    SW   17.7   19.8   18.4  1022.1  0.00  0.00   0.000   0.003   25.2    64   17.9   25.9  11.60  .0730    117    1    100.0    5 
29/08/16  15:05   19.0   19.1   18.9    86   16.6  11.0    SW   0.92  14.0    SW   17.5   19.6   18.1  1022.1  0.00  0.00   0.000   0.002   25.3    64   18.0   26.0  11.60  .0730    116    1    100.0    5 
29/08/16  15:10   18.9   19.0   18.9    85   16.4  10.0    SW   0.83  12.0   WSW   17.8   19.5   18.4  1022.2  0.00  0.00   0.000   0.002   25.3    64   18.0   26.1  11.60  .0730    116    1    100.0    5 
29/08/16  15:15   18.9   18.9   18.9    86   16.5  11.0   WSW   0.92  14.0   WSW   17.4   19.5   18.0  1022.2  0.00  0.00   0.000   0.002   25.3    63   17.8   26.0  11.40  .0730    117    1    100.0    5 
29/08/16  15:20   18.9   18.9   18.8    86   16.5  11.0   WSW   0.92  14.0   WSW   17.4   19.5   18.0  1022.2  0.00  0.00   0.000   0.002   25.4    63   17.8   26.1  11.40  .0730    117    1    100.0    5 
29/08/16  15:25   18.9   18.9   18.8    86   16.5  11.0    SW   0.92  14.0   WSW   17.4   19.6   18.1  1022.2  0.00  0.00   0.000   0.002   25.4    63   17.9   26.1  11.39  .0730    117    1    100.0    5 
29/08/16  15:30   19.1   19.1   18.9    86   16.7  12.0    SW   1.00  14.0    SW   17.2   19.7   17.8  1022.1  0.00  0.00   0.000   0.003   25.5    63   17.9   26.2  11.39  .0730    117    1    100.0    5 
29/08/16  15:35   19.3   19.3   19.1    86   16.9  12.0    SW   1.00  14.0   WSW   17.6   20.1   18.3  1022.1  0.00  0.00   0.000   0.003   25.5    62   17.7   26.1  11.19  .0730    117    1    100.0    5 
29/08/16  15:40   19.8   19.8   19.3    86   17.4  12.0    SW   1.00  15.0    SW   18.1   20.6   18.9  1022.2  0.00  0.00   0.000   0.005   25.6    62   17.7   26.2  11.19  .0730    116    1    100.0    5 
29/08/16  15:45   19.8   19.8   19.8    85   17.2  12.0    SW   1.00  15.0    SW   18.1   20.6   18.8  1022.2  0.00  0.00   0.000   0.005   25.6    62   17.7   26.2  11.19  .0730    117    1    100.0    5 
29/08/16  15:50   19.7   19.8   19.7    85   17.1  13.0    SW   1.08  16.0   WSW   17.6   20.4   18.4  1022.2  0.00  0.00   0.000   0.005   25.6    62   17.8   26.2  11.19  .0730    118    1    100.0    5 
29/08/16  15:55   19.7   19.7   19.6    86   17.3  12.0    SW   1.00  15.0   WSW   18.0   20.5   18.8  1022.2  0.00  0.00   0.000   0.005   25.7    62   17.8   26.3  11.19  .0729    117    1    100.0    5 
29/08/16  16:00   19.7   19.8   19.6    85   17.1  12.0    SW   1.00  15.0    SW   18.0   20.5   18.8  1022.0  0.00  0.00   0.000   0.005   25.7    62   17.9   26.4  11.18  .0729    117    1    100.0    5 
29/08/16  16:05   19.7   19.8   19.7    85   17.1  11.0    SW   0.92  14.0    SW   18.2   20.4   19.0  1022.0  0.00  0.00   0.000   0.005   25.7    62   17.9   26.4  11.18  .0729    117    1    100.0    5 
29/08/16  16:10   19.6   19.7   19.5    87   17.4  11.0    SW   0.92  13.0    SW   18.2   20.4   18.9  1022.1  0.00  0.00   0.000   0.004   25.8    62   17.9   26.4  11.18  .0729    117    1    100.0    5 
29/08/16  16:15   19.3   19.7   19.3    86   16.9  12.0    SW   1.00  14.0    SW   17.6   20.1   18.3  1022.2  0.00  0.00   0.000   0.003   25.8    62   18.0   26.5  11.18  .0729    117    1    100.0    5 
29/08/16  16:20   19.3   19.3   19.3    86   16.9  11.0    SW   0.92  13.0    SW   17.8   20.0   18.6  1022.2  0.00  0.00   0.000   0.003   25.9    62   18.0   26.6  11.18  .0729    117    1    100.0    5 
29/08/16  16:25   19.2   19.3   19.2    86   16.8  12.0   WSW   1.00  14.0   WSW   17.3   19.8   18.0  1022.2  0.00  0.00   0.000   0.003   25.9    62   18.0   26.6  11.18  .0729    117    1    100.0    5 
29/08/16  16:30   19.1   19.2   19.1    87   16.9  12.0    SW   1.00  14.0    SW   17.3   19.8   17.9  1022.3  0.00  0.00   0.000   0.003   25.9    61   17.8   26.5  10.98  .0729    117    1    100.0    5 
29/08/16  16:35   19.0   19.1   19.0    87   16.8  12.0   WSW   1.00  14.0    SW   17.1   19.7   17.8  1022.3  0.00  0.00   0.000   0.002   25.9    61   17.8   26.6  10.98  .0729    117    1    100.0    5 
29/08/16  16:40   19.0   19.0   18.9    88   17.0  12.0   WSW   1.00  14.0    SW   17.1   19.7   17.8  1022.3  0.00  0.00   0.000   0.002   25.9    61   17.8   26.6  10.98  .0729    116    1    100.0    5 
29/08/16  16:45   19.1   19.1   19.0    88   17.0  11.0   WSW   0.92  13.0    SW   17.6   19.8   18.3  1022.3  0.00  0.00   0.000   0.003   25.9    61   17.8   26.6  10.98  .0729    117    1    100.0    5 
29/08/16  16:50   19.4   19.4   19.1    87   17.2  11.0   WSW   0.92  14.0   WSW   18.0   20.2   18.8  1022.3  0.00  0.00   0.000   0.004   26.0    61   17.9   26.7  10.97  .0729    117    1    100.0    5 
29/08/16  16:55   19.8   19.8   19.4    86   17.4  11.0   WSW   0.92  14.0    SW   18.3   20.6   19.2  1022.3  0.00  0.00   0.000   0.005   26.0    61   17.9   26.7  10.97  .0729    117    1    100.0    5 
29/08/16  17:00   19.8   19.8   19.8    85   17.2  12.0   WSW   1.00  14.0   WSW   18.1   20.6   18.9  1022.3  0.00  0.00   0.000   0.005   26.1    61   17.9   26.7  10.97  .0728    117    1    100.0    5 
29/08/16  17:05   19.7   19.8   19.7    85   17.1  11.0    SW   0.92  14.0   WSW   18.3   20.5   19.1  1022.3  0.00  0.00   0.000   0.005   26.1    61   18.0   26.8  10.97  .0728    116    1    100.0    5 
29/08/16  17:10   19.6   19.7   19.6    85   17.0  11.0   WSW   0.92  14.0   WSW   18.2   20.4   18.9  1022.2  0.00  0.00   0.000   0.004   26.1    61   18.0   26.8  10.97  .0728    117    1    100.0    5 
29/08/16  17:15   19.5   19.6   19.4    86   17.1  12.0   WSW   1.00  15.0   WSW   17.7   20.3   18.5  1022.3  0.00  0.00   0.000   0.004   26.2    61   18.1   26.8  10.97  .0728    116    1    100.0    5 
29/08/16  17:20   19.6   19.6   19.5    86   17.1  12.0    SW   1.00  14.0    SW   17.8   20.3   18.6  1022.3  0.00  0.00   0.000   0.004   26.2    61   18.1   26.8  10.97  .0728    116    1    100.0    5 
29/08/16  17:25   19.2   19.5   19.2    86   16.8  11.0    SW   0.92  13.0    SW   17.8   19.9   18.4  1022.3  0.00  0.00   0.000   0.003   26.2    61   18.1   26.9  10.97  .0728    116    1    100.0    5 
29/08/16  17:30   19.1   19.2   19.1    87   16.9  11.0    SW   0.92  14.0    SW   17.6   19.8   18.3  1022.3  0.00  0.00   0.000   0.003   26.2    60   17.8   26.8  10.78  .0728    116    1    100.0    5 
29/08/16  17:35   19.2   19.2   19.1    87   17.0  12.0   WSW   1.00  15.0   WSW   17.4   19.9   18.1  1022.3  0.00  0.00   0.000   0.003   26.2    60   17.8   26.8  10.78  .0728    117    1    100.0    5 
29/08/16  17:40   19.4   19.4   19.3    87   17.2  11.0   WSW   0.92  14.0    SW   18.0   20.2   18.8  1022.4  0.00  0.00   0.000   0.004   26.2    60   17.8   26.8  10.78  .0728    117    1    100.0    5 
29/08/16  17:45   19.2   19.5   19.2    86   16.8  12.0   WSW   1.00  15.0   WSW   17.3   19.8   18.0  1022.4  0.00  0.00   0.000   0.003   26.2    60   17.8   26.8  10.78  .0728    117    1    100.0    5 
29/08/16  17:50   18.9   19.2   18.9    87   16.7  12.0    SW   1.00  14.0   WSW   17.1   19.6   17.7  1022.3  0.00  0.00   0.000   0.002   26.2    60   17.8   26.8  10.78  .0728    117    1    100.0    5 
29/08/16  17:55   19.1   19.1   18.9    88   17.0  12.0    SW   1.00  14.0    SW   17.2   19.8   17.9  1022.3  0.00  0.00   0.000   0.003   26.2    60   17.8   26.8  10.78  .0728    118    1    100.0    5 
29/08/16  18:00   19.2   19.2   19.1    88   17.2  11.0   WSW   0.92  14.0   WSW   17.8   19.9   18.5  1022.4  0.00  0.00   0.000   0.003   26.2    60   17.8   26.8  10.79  .0728    117    1    100.0    5 
29/08/16  18:05   19.1   19.2   19.1    87   16.9  12.0   WSW   1.00  15.0   WSW   17.3   19.8   17.9  1022.3  0.00  0.00   0.000   0.003   26.2    60   17.8   26.8  10.79  .0728    117    1    100.0    5 
29/08/16  18:10   19.2   19.2   19.1    87   17.0  12.0   WSW   1.00  15.0    SW   17.4   19.9   18.1  1022.4  0.00  0.00   0.000   0.003   26.2    60   17.8   26.8  10.79  .0728    117    1    100.0    5 
29/08/16  18:15   19.2   19.2   19.2    88   17.2  13.0   WSW   1.08  16.0   WSW   17.1   19.9   17.8  1022.4  0.00  0.00   0.000   0.003   26.2    60   17.8   26.8  10.79  .0728    117    1    100.0    5 
29/08/16  18:20   19.2   19.2   19.1    88   17.1  13.0   WSW   1.08  15.0    SW   17.1   19.9   17.8  1022.4  0.00  0.00   0.000   0.003   26.2    60   17.8   26.8  10.79  .0728    116    1    100.0    5 
29/08/16  18:25   19.1   19.2   19.0    88   17.0  14.0   WSW   1.17  17.0   WSW   16.7   19.8   17.4  1022.4  0.00  0.00   0.000   0.003   26.2    60   17.8   26.8  10.79  .0728    116    1    100.0    5 
29/08/16  18:30   19.0   19.1   18.9    88   17.0  13.0   WSW   1.08  16.0    SW   16.8   19.7   17.5  1022.5  0.00  0.00   0.000   0.002   26.2    60   17.8   26.8  10.79  .0729    117    1    100.0    5 
29/08/16  18:35   19.0   19.0   19.0    88   17.0  13.0   WSW   1.08  15.0   WSW   16.8   19.7   17.5  1022.5  0.00  0.00   0.000   0.002   26.1    60   17.7   26.7  10.79  .0729    117    1    100.0    5 
29/08/16  18:40   19.2   19.2   19.0    88   17.1   9.0   WSW   0.75  14.0   WSW   18.4   19.9   19.2  1022.5  0.00  0.00   0.000   0.003   26.1    60   17.7   26.7  10.79  .0729    116    1    100.0    5 
29/08/16  18:45   19.1   19.2   19.1    87   16.8  12.0   WSW   1.00  16.0    SW   17.2   19.7   17.9  1022.5  0.00  0.00   0.000   0.003   26.2    60   17.8   26.8  10.79  .0729    117    1    100.0    5 
29/08/16  18:50   19.1   19.1   19.0    87   16.8  12.0   WSW   1.00  16.0   WSW   17.2   19.7   17.9  1022.5  0.00  0.00   0.000   0.003   26.2    60   17.8   26.8  10.79  .0729    116    1    100.0    5 
29/08/16  18:55   19.1   19.1   19.0    87   16.8  12.0   WSW   1.00  15.0   WSW   17.2   19.7   17.9  1022.5  0.00  0.00   0.000   0.003   26.1    60   17.7   26.7  10.79  .0729    116    1    100.0    5 
29/08/16  19:00   19.0   19.1   18.9    88   17.0  12.0   WSW   1.00  14.0   WSW   17.1   19.7   17.8  1022.6  0.00  0.00   0.000   0.002   26.1    60   17.7   26.7  10.79  .0729    117    1    100.0    5 
29/08/16  19:05   18.9   19.0   18.9    88   16.9  13.0   WSW   1.08  14.0   WSW   16.7   19.6   17.4  1022.7  0.00  0.00   0.000   0.002   26.1    60   17.7   26.7  10.79  .0729    117    1    100.0    5 
29/08/16  19:10   18.9   18.9   18.9    88   16.9  10.0    SW   0.83  14.0   WSW   17.8   19.6   18.5  1022.7  0.00  0.00   0.000   0.002   26.1    60   17.7   26.7  10.79  .0729    117    1    100.0    5 
29/08/16  19:15   18.8   18.9   18.8    88   16.7  11.0   WSW   0.92  14.0   WSW   17.3   19.4   17.9  1022.6  0.00  0.00   0.000   0.002   26.1    60   17.7   26.7  10.79  .0729    115    1    100.0    5 
29/08/16  19:20   18.7   18.8   18.7    88   16.7  11.0    SW   0.92  13.0   WSW   17.2   19.3   17.8  1022.6  0.00  0.00   0.000   0.001   26.1    60   17.7   26.7  10.79  .0729    115    1    100.0    5 
29/08/16  19:25   18.7   18.8   18.7    88   16.7  11.0   WSW   0.92  13.0   WSW   17.2   19.3   17.8  1022.6  0.00  0.00   0.000   0.001   26.1    59   17.5   26.7  10.59  .0729    117    1    100.0    5 
29/08/16  19:30   18.7   18.8   18.7    89   16.9  11.0   WSW   0.92  13.0   WSW   17.2   19.4   17.8  1022.6  0.00  0.00   0.000   0.001   26.1    59   17.4   26.6  10.59  .0729    117    1    100.0    5 
29/08/16  19:35   18.7   18.7   18.7    89   16.9   9.0   WSW   0.75  12.0   WSW   18.0   19.4   18.7  1022.7  0.00  0.00   0.000   0.001   26.1    59   17.4   26.6  10.59  .0729    117    1    100.0    5 
29/08/16  19:40   18.7   18.7   18.7    89   16.9   9.0   WSW   0.75  12.0   WSW   18.0   19.4   18.7  1022.7  0.00  0.00   0.000   0.001   26.1    60   17.7   26.7  10.79  .0729    116    1    100.0    5 
29/08/16  19:45   18.7   18.7   18.7    89   16.9   9.0   WSW   0.75  12.0   WSW   18.0   19.4   18.7  1022.7  0.00  0.00   0.000   0.001   26.1    60   17.7   26.7  10.79  .0729    117    1    100.0    5 
29/08/16  19:50   18.7   18.7   18.7    90   17.0   8.0   WSW   0.67  11.0   WSW   18.4   19.4   19.1  1022.8  0.00  0.00   0.000   0.001   26.1    60   17.7   26.7  10.79  .0729    115    1    100.0    5 
29/08/16  19:55   18.7   18.7   18.7    89   16.9   9.0   WSW   0.75  12.0    SW   18.0   19.4   18.7  1022.8  0.00  0.00   0.000   0.001   26.1    60   17.7   26.7  10.79  .0729    117    1    100.0    5 
29/08/16  20:00   18.6   18.7   18.6    89   16.8   7.0     W   0.58  10.0     W   18.6   19.2   19.2  1022.8  0.00  0.00   0.000   0.001   26.1    60   17.7   26.7  10.79  .0729    118    1    100.0    5 
29/08/16  20:05   18.7   18.7   18.6    90   17.0   7.0   WSW   0.58  10.0   WSW   18.7   19.3   19.3  1022.9  0.00  0.00   0.000   0.001   26.0    60   17.6   26.6  10.80  .0729    117    1    100.0    5 
29/08/16  20:10   18.7   18.7   18.6    89   16.8   8.0   WSW   0.67  11.0   WSW   18.3   19.3   18.9  1022.9  0.00  0.00   0.000   0.001   26.0    60   17.6   26.6  10.80  .0729    116    1    100.0    5 
29/08/16  20:15   18.7   18.7   18.6    90   17.0   9.0   WSW   0.75  12.0   WSW   17.9   19.3   18.6  1023.0  0.00  0.00   0.000   0.001   26.0    61   17.9   26.7  10.97  .0729    116    1    100.0    5 
29/08/16  20:20   18.7   18.7   18.6    90   17.0   8.0   WSW   0.67  11.0   WSW   18.3   19.3   19.0  1022.9  0.00  0.00   0.000   0.001   25.9    61   17.8   26.6  10.98  .0729    117    1    100.0    5 
29/08/16  20:25   18.7   18.7   18.7    90   17.0   8.0   WSW   0.67  10.0   WSW   18.3   19.3   19.0  1023.0  0.00  0.00   0.000   0.001   26.0    61   17.9   26.7  10.97  .0729    116    1    100.0    5 
29/08/16  20:30   18.7   18.7   18.6    90   17.0   6.0   WSW   0.50   9.0     W   18.7   19.3   19.3  1023.0  0.00  0.00   0.000   0.001   25.9    61   17.8   26.6  10.98  .0729    116    1    100.0    5 
29/08/16  20:35   18.7   18.7   18.7    90   17.0   7.0   WSW   0.58   9.0   WSW   18.7   19.3   19.3  1023.1  0.00  0.00   0.000   0.001   25.9    61   17.8   26.6  10.98  .0729    117    1    100.0    5 
29/08/16  20:40   18.7   18.7   18.7    90   17.0   4.0     W   0.33   7.0   WSW   18.7   19.3   19.3  1023.1  0.00  0.00   0.000   0.001   25.9    61   17.8   26.5  10.98  .0730    117    1    100.0    5 
29/08/16  20:45   18.6   18.7   18.6    90   16.9   3.0   WSW   0.25   5.0     W   18.6   19.3   19.3  1023.1  0.00  0.00   0.000   0.001   25.9    61   17.8   26.5  10.98  .0730    117    1    100.0    5 
29/08/16  20:50   18.6   18.6   18.6    90   16.9   2.0   WSW   0.17   4.0   WSW   18.6   19.2   19.2  1023.2  0.00  0.00   0.000   0.001   25.9    61   17.8   26.5  10.98  .0730    117    1    100.0    5 
29/08/16  20:55   18.5   18.6   18.5    90   16.8   3.0   WSW   0.25   5.0   WSW   18.5   19.1   19.1  1023.2  0.00  0.00   0.000   0.001   25.9    61   17.8   26.5  10.98  .0730    117    1    100.0    5 
29/08/16  21:00   18.4   18.5   18.4    90   16.8   2.0   WSW   0.17   4.0   WSW   18.4   19.1   19.1  1023.2  0.00  0.00   0.000   0.000   25.9    61   17.8   26.5  10.98  .0730    117    1    100.0    5 
29/08/16  21:05   18.4   18.5   18.4    90   16.8   2.0   WSW   0.17   3.0   WSW   18.4   19.1   19.1  1023.2  0.00  0.00   0.000   0.000   25.9    61   17.8   26.5  10.98  .0730    117    1    100.0    5 
29/08/16  21:10   18.4   18.4   18.4    90   16.7   1.0   WSW   0.08   3.0   WSW   18.4   18.9   18.9  1023.3  0.00  0.00   0.000   0.000   25.9    61   17.8   26.5  10.98  .0730    117    1    100.0    5 
29/08/16  21:15   18.3   18.4   18.3    90   16.7   0.0   ---   0.00   0.0   ---   18.3   18.9   18.9  1023.3  0.00  0.00   0.000   0.000   25.9    61   17.8   26.5  10.98  .0730    117    1    100.0    5 
29/08/16  21:20   18.3   18.3   18.3    91   16.8   0.0   WSW   0.00   1.0   WSW   18.3   18.9   18.9  1023.3  0.00  0.00   0.000   0.000   25.9    61   17.8   26.5  10.98  .0730    117    1    100.0    5 
29/08/16  21:25   18.3   18.3   18.3    91   16.8   0.0   WSW   0.00   1.0   WSW   18.3   18.8   18.8  1023.3  0.00  0.00   0.000   0.000   25.8    61   17.7   26.4  10.98  .0730    116    1    100.0    5 
29/08/16  21:30   18.3   18.3   18.3    91   16.8   0.0   WSW   0.00   1.0   WSW   18.3   18.8   18.8  1023.4  0.00  0.00   0.000   0.000   25.8    61   17.7   26.4  10.98  .0730    115    1    100.0    5 
29/08/16  21:35   18.2   18.3   18.2    90   16.5   0.0   ---   0.00   0.0   ---   18.2   18.7   18.7  1023.4  0.00  0.00   0.001   0.000   25.8    61   17.7   26.4  10.98  .0730    117    1    100.0    5 
29/08/16  21:40   18.1   18.2   18.1    90   16.4   0.0   ---   0.00   0.0   ---   18.1   18.6   18.6  1023.4  0.00  0.00   0.001   0.000   25.8    61   17.7   26.4  10.98  .0730    117    1    100.0    5 
29/08/16  21:45   18.0   18.1   18.0    90   16.3   0.0   ---   0.00   0.0   ---   18.0   18.5   18.5  1023.4  0.00  0.00   0.001   0.000   25.8    60   17.5   26.4  10.81  .0730    117    1    100.0    5 
29/08/16  21:50   17.8   18.0   17.8    90   16.2   0.0   ---   0.00   0.0   ---   17.8   18.3   18.3  1023.4  0.00  0.00   0.002   0.000   25.8    60   17.5   26.4  10.81  .0730    116    1    100.0    5 
29/08/16  21:55   17.7   17.8   17.7    90   16.1   0.0   ---   0.00   0.0   ---   17.7   18.2   18.2  1023.5  0.00  0.00   0.002   0.000   25.8    60   17.4   26.3  10.81  .0731    117    1    100.0    5 
29/08/16  22:00   17.6   17.7   17.6    90   15.9   0.0   ---   0.00   0.0   ---   17.6   18.0   18.0  1023.5  0.00  0.00   0.003   0.000   25.8    60   17.4   26.3  10.81  .0731    116    1    100.0    5 
29/08/16  22:05   17.4   17.6   17.4    90   15.8   0.0   ---   0.00   0.0   ---   17.4   17.8   17.8  1023.5  0.00  0.00   0.003   0.000   25.8    60   17.4   26.3  10.81  .0731    115    1    100.0    5 
29/08/16  22:10   17.3   17.4   17.3    90   15.7   0.0   ---   0.00   0.0   ---   17.3   17.7   17.7  1023.5  0.00  0.00   0.003   0.000   25.8    60   17.4   26.3  10.81  .0731    116    1    100.0    5 
29/08/16  22:15   17.2   17.3   17.2    90   15.5   0.0   ---   0.00   0.0   ---   17.2   17.6   17.6  1023.6  0.00  0.00   0.004   0.000   25.8    60   17.4   26.3  10.81  .0731    116    1    100.0    5 
29/08/16  22:20   17.1   17.2   17.1    90   15.4   0.0   ---   0.00   0.0   ---   17.1   17.4   17.4  1023.6  0.00  0.00   0.004   0.000   25.7    60   17.4   26.3  10.82  .0731    117    1    100.0    5 
29/08/16  22:25   16.9   17.1   16.9    90   15.2   0.0   ---   0.00   0.0   ---   16.9   17.2   17.2  1023.6  0.00  0.00   0.005   0.000   25.7    59   17.1   26.2  10.62  .0731    115    1    100.0    5 
29/08/16  22:30   16.8   16.9   16.8    91   15.3   0.0   ---   0.00   0.0   ---   16.8   17.1   17.1  1023.6  0.00  0.00   0.005   0.000   25.7    59   17.1   26.2  10.62  .0731    117    1    100.0    5 
29/08/16  22:35   16.7   16.8   16.7    91   15.2   0.0   WSW   0.00   2.0   WSW   16.7   16.9   16.9  1023.7  0.00  0.00   0.006   0.000   25.7    59   17.1   26.2  10.62  .0731    117    1    100.0    5 
29/08/16  22:40   16.6   16.7   16.6    91   15.1   2.0   WSW   0.17   3.0   WSW   16.6   16.8   16.8  1023.7  0.00  0.00   0.006   0.000   25.7    59   17.1   26.2  10.62  .0731    117    1    100.0    5 
29/08/16  22:45   16.4   16.6   16.4    91   15.0   1.0   WSW   0.08   3.0   WSW   16.4   16.7   16.7  1023.7  0.00  0.00   0.007   0.000   25.6    59   17.0   26.1  10.63  .0731    117    1    100.0    5 
29/08/16  22:50   16.3   16.4   16.3    91   14.9   2.0    NW   0.17   3.0    NW   16.3   16.6   16.6  1023.7  0.00  0.00   0.007   0.000   25.6    58   16.7   25.9  10.43  .0732    117    1    100.0    5 
29/08/16  22:55   16.2   16.3   16.2    91   14.8   0.0    NW   0.00   2.0    NW   16.2   16.4   16.4  1023.7  0.00  0.00   0.007   0.000   25.5    58   16.6   25.9  10.43  .0732    117    1    100.0    5 
29/08/16  23:00   16.1   16.2   16.1    91   14.6   0.0   ---   0.00   0.0   ---   16.1   16.3   16.3  1023.7  0.00  0.00   0.008   0.000   25.4    58   16.6   25.8  10.44  .0732    116    1    100.0    5 
29/08/16  23:05   16.0   16.1   16.0    91   14.5   0.0   ---   0.00   0.0   ---   16.0   16.2   16.2  1023.7  0.00  0.00   0.008   0.000   25.4    58   16.5   25.8  10.44  .0732    117    1    100.0    5 
29/08/16  23:10   15.9   16.0   15.9    91   14.5   0.0   ---   0.00   0.0   ---   15.9   16.2   16.2  1023.8  0.00  0.00   0.008   0.000   25.3    58   16.4   25.7  10.45  .0733    118    1    100.0    5 
29/08/16  23:15   15.9   15.9   15.9    91   14.4   0.0   ---   0.00   0.0   ---   15.9   16.1   16.1  1023.8  0.00  0.00   0.008   0.000   25.2    58   16.4   25.6  10.45  .0733    116    1    100.0    5 
29/08/16  23:20   15.8   15.9   15.8    91   14.4   0.0   ---   0.00   0.0   ---   15.8   16.1   16.1  1023.9  0.00  0.00   0.009   0.000   25.2    59   16.6   25.6  10.66  .0733    117    1    100.0    5 
29/08/16  23:25   15.8   15.8   15.8    92   14.5   0.0   ---   0.00   0.0   ---   15.8   16.1   16.1  1023.9  0.00  0.00   0.009   0.000   25.2    58   16.3   25.5  10.46  .0733    117    1    100.0    5 
29/08/16  23:30   15.8   15.8   15.8    92   14.5   0.0   ---   0.00   0.0   ---   15.8   16.0   16.0  1023.9  0.00  0.00   0.009   0.000   25.1    58   16.3   25.4  10.46  .0734    116    1    100.0    5 
29/08/16  23:35   15.7   15.8   15.7    92   14.4   0.0   ---   0.00   0.0   ---   15.7   15.9   15.9  1023.9  0.00  0.00   0.009   0.000   25.0    58   16.2   25.3  10.47  .0734    117    1    100.0    5 
29/08/16  23:40   15.6   15.7   15.6    92   14.3   0.0   ---   0.00   0.0   ---   15.6   15.8   15.8  1023.9  0.00  0.00   0.009   0.000   24.9    58   16.1   25.3  10.47  .0734    117    1    100.0    5 
29/08/16  23:45   15.6   15.6   15.6    91   14.1   0.0   ---   0.00   0.0   ---   15.6   15.7   15.7  1023.9  0.00  0.00   0.010   0.000   24.9    58   16.1   25.2  10.48  .0734    117    1    100.0    5 
29/08/16  23:50   15.5   15.6   15.5    92   14.2   0.0   ---   0.00   0.0   ---   15.5   15.7   15.7  1023.9  0.00  0.00   0.010   0.000   24.8    58   16.0   25.2  10.48  .0734    117    1    100.0    5 
29/08/16  23:55   15.4   15.5   15.4    92   14.1   0.0   ---   0.00   0.0   ---   15.4   15.6   15.6  1023.9  0.00  0.00   0.010   0.000   24.8    59   16.2   25.2  10.69  .0734    116    1    100.0    5 
30/08/16  00:00   15.3   15.4   15.3    92   14.0   0.0   ---   0.00   0.0   ---   15.3   15.5   15.5  1024.0  0.00  0.00   0.010   0.000   24.8    59   16.2   25.2  10.69  .0734    116    1    100.0    5 
30/08/16   0:05   15.3   15.3   15.3    92   14.0   0.0   ---   0.00   0.0   ---   15.3   15.4   15.4  1023.9  0.00  0.00   0.011   0.000   24.7    59   16.2   25.1  10.69  .0735    115    1    100.0    5 
30/08/16   0:10   15.2   15.3   15.2    92   13.9   0.0   ---   0.00   0.0   ---   15.2   15.4   15.4  1024.0  0.00  0.00   0.011   0.000   24.7    59   16.1   25.1  10.69  .0735    117    1    100.0    5 
30/08/16   0:15   15.2   15.2   15.2    92   13.9   0.0   ---   0.00   0.0   ---   15.2   15.3   15.3  1024.0  0.00  0.00   0.011   0.000   24.7    59   16.1   25.1  10.69  .0735    117    1    100.0    5 
30/08/16   0:20   15.1   15.2   15.1    92   13.8   0.0    NW   0.00   1.0    NW   15.1   15.2   15.2  1024.0  0.00  0.00   0.011   0.000   24.6    58   15.7   24.9  10.50  .0735    117    1    100.0    5 
30/08/16   0:25   15.0   15.1   15.0    92   13.7   2.0    NW   0.17   4.0    NW   15.0   15.2   15.2  1023.9  0.00  0.00   0.012   0.000   24.5    58   15.7   24.8  10.51  .0736    117    1    100.0    5 
30/08/16   0:30   14.9   15.0   14.9    92   13.6   3.0     N   0.25   5.0     N   14.9   15.1   15.1  1024.0  0.00  0.00   0.012   0.000   24.4    57   15.4   24.7  10.31  .0736    117    1    100.0    5 
30/08/16   0:35   14.8   14.8   14.8    92   13.5   3.0     N   0.25   5.0     N   14.8   14.9   14.9  1024.0  0.00  0.00   0.012   0.000   24.3    56   14.9   24.5  10.22  .0737    116    1    100.0    5 
30/08/16   0:40   14.7   14.8   14.7    92   13.4   3.0     N   0.25   5.0     N   14.7   14.8   14.8  1024.0  0.00  0.00   0.013   0.000   24.2    56   14.8   24.4  10.23  .0737    118    1    100.0    5 
30/08/16   0:45   14.6   14.7   14.6    92   13.3   3.0     N   0.25   5.0     N   14.6   14.7   14.7  1024.1  0.00  0.00   0.013   0.000   24.1    56   14.7   24.3  10.24  .0738    116    1    100.0    5 
30/08/16   0:50   14.4   14.6   14.4    92   13.2   2.0     N   0.17   4.0     N   14.4   14.6   14.6  1024.0  0.00  0.00   0.014   0.000   23.9    56   14.6   24.3  10.25  .0738    117    1    100.0    5 
30/08/16   0:55   14.3   14.4   14.3    92   13.1   1.0     N   0.08   3.0     N   14.3   14.4   14.4  1024.0  0.00  0.00   0.014   0.000   23.8    56   14.5   24.1  10.25  .0738    116    1    100.0    5 
30/08/16   1:00   14.3   14.3   14.3    92   13.0   1.0     N   0.08   3.0     N   14.3   14.4   14.4  1024.0  0.00  0.00   0.014   0.000   23.7    56   14.4   23.9  10.26  .0739    113    1     99.1    5 
30/08/16   1:05   14.2   14.3   14.2    92   12.9   3.0     N   0.25   4.0     N   14.2   14.3   14.3  1024.1  0.00  0.00   0.014   0.000   23.6    56   14.3   23.8  10.26  .0739    116    1    100.0    5 
30/08/16   1:10   14.1   14.2   14.1    92   12.8   3.0     N   0.25   4.0     N   14.1   14.2   14.2  1024.0  0.00  0.00   0.015   0.000   23.5    56   14.2   23.7  10.26  .0739    117    1    100.0    5 
30/08/16   1:15   14.0   14.1   14.0    92   12.7   3.0     N   0.25   4.0     N   14.0   14.1   14.1  1023.9  0.00  0.00   0.015   0.000   23.3    55   13.8   23.4  10.07  .0740    117    1    100.0    5 
30/08/16   1:20   13.9   14.0   13.9    92   12.6   3.0     N   0.25   4.0     N   13.9   13.9   13.9  1024.0  0.00  0.00   0.015   0.000   23.2    55   13.7   23.3  10.07  .0740    116    1    100.0    5 
30/08/16   1:25   13.8   13.9   13.8    92   12.5   2.0     N   0.17   4.0     N   13.8   13.8   13.8  1024.0  0.00  0.00   0.016   0.000   23.1    55   13.6   23.2  10.08  .0741    115    1    100.0    5 
30/08/16   1:30   13.8   13.8   13.8    92   12.5   1.0     N   0.08   3.0     N   13.8   13.8   13.8  1024.0  0.00  0.00   0.016   0.000   23.1    56   13.8   23.2  10.28  .0741    116    1    100.0    5 
30/08/16   1:35   13.7   13.8   13.7    92   12.4   0.0     N   0.00   2.0     N   13.7   13.8   13.8  1024.1  0.00  0.00   0.016   0.000   22.9    56   13.7   23.0  10.28  .0741    117    1    100.0    5 
30/08/16   1:40   13.7   13.7   13.7    92   12.4   2.0     N   0.17   3.0     N   13.7   13.7   13.7  1024.0  0.00  0.00   0.016   0.000   22.9    56   13.6   22.9  10.29  .0741    118    1    100.0    5 
30/08/16   1:45   13.6   13.7   13.6    92   12.3   3.0     N   0.25   4.0     N   13.6   13.7   13.7  1024.1  0.00  0.00   0.016   0.000   22.8    55   13.3   22.8  10.09  .0742    116    1    100.0    5 
30/08/16   1:50   13.6   13.6   13.6    92   12.3   2.0     N   0.17   4.0     N   13.6   13.6   13.6  1024.1  0.00  0.00   0.017   0.000   22.7    55   13.2   22.7  10.09  .0742    117    1    100.0    5 
30/08/16   1:55   13.5   13.6   13.5    92   12.2   0.0     N   0.00   2.0     N   13.5   13.6   13.6  1024.1  0.00  0.00   0.017   0.000   22.6    56   13.4   22.6  10.30  .0742    117    1    100.0    5 
30/08/16   2:00   13.5   13.5   13.5    92   12.2   0.0   ---   0.00   0.0   ---   13.5   13.6   13.6  1024.0  0.00  0.00   0.017   0.000   22.6    56   13.4   22.6  10.30  .0742    117    1    100.0    5 
30/08/16   2:05   13.5   13.5   13.5    92   12.2   0.0   ---   0.00   0.0   ---   13.5   13.6   13.6  1024.0  0.00  0.00   0.017   0.000   22.6    57   13.6   22.6  10.45  .0742    116    1    100.0    5 
30/08/16   2:10   13.5   13.5   13.5    92   12.2   0.0   ---   0.00   0.0   ---   13.5   13.6   13.6  1024.1  0.00  0.00   0.017   0.000   22.6    57   13.6   22.6  10.45  .0742    116    1    100.0    5 
30/08/16   2:15   13.5   13.5   13.5    92   12.2   0.0     N   0.00   2.0     N   13.5   13.6   13.6  1024.1  0.00  0.00   0.017   0.000   22.6    57   13.6   22.6  10.45  .0742    117    1    100.0    5 
30/08/16   2:20   13.5   13.5   13.5    92   12.2   1.0     N   0.08   2.0     N   13.5   13.6   13.6  1024.1  0.00  0.00   0.017   0.000   22.5    57   13.6   22.4  10.45  .0742    117    1    100.0    5 
30/08/16   2:25   13.6   13.6   13.5    92   12.3   0.0     N   0.00   2.0     N   13.6   13.6   13.6  1024.1  0.00  0.00   0.017   0.000   22.5    57   13.6   22.4  10.45  .0742    116    1    100.0    5 
30/08/16   2:30   13.6   13.6   13.6    92   12.3   0.0     N   0.00   2.0     N   13.6   13.7   13.7  1024.1  0.00  0.00   0.016   0.000   22.5    57   13.6   22.4  10.45  .0742    116    1    100.0    5 
30/08/16   2:35   13.7   13.7   13.6    92   12.4   0.0     N   0.00   1.0     N   13.7   13.7   13.7  1024.0  0.00  0.00   0.016   0.000   22.5    57   13.6   22.4  10.45  .0742    117    1    100.0    5 
30/08/16   2:40   13.7   13.7   13.7    92   12.4   0.0   ---   0.00   0.0   ---   13.7   13.8   13.8  1024.0  0.00  0.00   0.016   0.000   22.5    58   13.8   22.5  10.65  .0742    116    1    100.0    5 
30/08/16   2:45   13.7   13.8   13.7    92   12.4   0.0   ---   0.00   0.0   ---   13.7   13.8   13.8  1024.0  0.00  0.00   0.016   0.000   22.5    58   13.8   22.5  10.65  .0742    117    1    100.0    5 
30/08/16   2:50   13.7   13.8   13.7    92   12.4   0.0     N   0.00   2.0     N   13.7   13.8   13.8  1024.0  0.00  0.00   0.016   0.000   22.5    57   13.6   22.4  10.45  .0742    116    1    100.0    5 
30/08/16   2:55   13.7   13.7   13.7    91   12.3   3.0     N   0.25   4.0     N   13.7   13.8   13.8  1024.0  0.00  0.00   0.016   0.000   22.5    57   13.6   22.4  10.45  .0742    117    1    100.0    5 
30/08/16   3:00   13.7   13.7   13.7    91   12.2   3.0     N   0.25   5.0     N   13.7   13.7   13.7  1023.9  0.00  0.00   0.016   0.000   22.5    56   13.3   22.4  10.30  .0742    117    1    100.0    5 
30/08/16   3:05   13.6   13.7   13.6    91   12.2   3.0     N   0.25   4.0     N   13.6   13.7   13.7  1024.0  0.00  0.00   0.016   0.000   22.4    56   13.2   22.2  10.30  .0743    116    1    100.0    5 
30/08/16   3:10   13.6   13.6   13.6    91   12.2   3.0     N   0.25   5.0     N   13.6   13.7   13.7  1023.9  0.00  0.00   0.016   0.000   22.3    56   13.1   22.2  10.31  .0743    117    1    100.0    5 
30/08/16   3:15   13.6   13.6   13.6    91   12.2   4.0     N   0.33   5.0     N   13.6   13.7   13.6  1023.9  0.00  0.00   0.016   0.000   22.3    56   13.1   22.1  10.31  .0743    117    1    100.0    5 
30/08/16   3:20   13.6   13.6   13.6    91   12.2   4.0     N   0.33   5.0     N   13.6   13.7   13.6  1023.9  0.00  0.00   0.016   0.000   22.2    56   13.0   21.9  10.31  .0743    116    1    100.0    5 
30/08/16   3:25   13.7   13.7   13.6    91   12.2   4.0     N   0.33   6.0     N   13.6   13.7   13.7  1023.9  0.00  0.00   0.016   0.000   22.1    56   12.9   21.8  10.31  .0744    117    1    100.0    5 
30/08/16   3:30   13.7   13.7   13.7    91   12.2   4.0     N   0.33   5.0   NNE   13.6   13.7   13.7  1023.9  0.00  0.00   0.016   0.000   22.0    56   12.8   21.7  10.32  .0744    117    1    100.0    5 
30/08/16   3:35   13.7   13.7   13.7    91   12.3   3.0     N   0.25   5.0     N   13.7   13.8   13.8  1023.9  0.00  0.00   0.016   0.000   21.9    56   12.8   21.6  10.32  .0744    117    1    100.0    5 
30/08/16   3:40   13.7   13.7   13.7    91   12.3   3.0     N   0.25   4.0     N   13.7   13.8   13.8  1023.9  0.00  0.00   0.016   0.000   21.8    56   12.7   21.4  10.32  .0744    117    1    100.0    5 
30/08/16   3:45   13.7   13.7   13.7    91   12.3   2.0     N   0.17   4.0     N   13.7   13.8   13.8  1023.9  0.00  0.00   0.016   0.000   21.8    56   12.6   21.3  10.33  .0745    116    1    100.0    5 
30/08/16   3:50   13.7   13.7   13.7    91   12.2   0.0   ---   0.00   0.0   ---   13.7   13.7   13.7  1023.9  0.00  0.00   0.016   0.000   21.7    57   12.8   21.2  10.51  .0745    118    1    100.0    5 
30/08/16   3:55   13.7   13.7   13.7    91   12.2   0.0   ---   0.00   0.0   ---   13.7   13.7   13.7  1023.9  0.00  0.00   0.016   0.000   21.6    57   12.7   21.2  10.51  .0745    116    1    100.0    5 
30/08/16   4:00   13.7   13.7   13.7    91   12.2   0.0   ---   0.00   0.0   ---   13.7   13.7   13.7  1023.8  0.00  0.00   0.016   0.000   21.6    57   12.7   21.2  10.51  .0745    117    1    100.0    5 
30/08/16   4:05   13.7   13.7   13.7    90   12.1   0.0   ---   0.00   0.0   ---   13.7   13.7   13.7  1023.9  0.00  0.00   0.016   0.000   21.6    58   13.0   21.2  10.71  .0745    116    1    100.0    5 
30/08/16   4:10   13.6   13.7   13.6    90   12.0   0.0   ---   0.00   0.0   ---   13.6   13.7   13.7  1023.8  0.00  0.00   0.016   0.000   21.6    58   13.0   21.2  10.71  .0745    117    1    100.0    5 
30/08/16   4:15   13.6   13.7   13.6    91   12.2   0.0   ---   0.00   0.0   ---   13.6   13.7   13.7  1023.8  0.00  0.00   0.016   0.000   21.6    58   13.0   21.2  10.71  .0745    117    1    100.0    5 
30/08/16   4:20   13.6   13.7   13.6    91   12.2   0.0   ---   0.00   0.0   ---   13.6   13.7   13.7  1023.9  0.00  0.00   0.016   0.000   21.6    58   13.0   21.2  10.71  .0745    117    1    100.0    5 
30/08/16   4:25   13.6   13.6   13.6    90   12.0   0.0   ---   0.00   0.0   ---   13.6   13.7   13.7  1023.9  0.00  0.00   0.016   0.000   21.6    58   13.0   21.2  10.71  .0745    117    1    100.0    5 
30/08/16   4:30   13.6   13.6   13.6    90   12.0   0.0   ---   0.00   0.0   ---   13.6   13.7   13.7  1023.9  0.00  0.00   0.016   0.000   21.6    58   13.0   21.2  10.71  .0745    117    1    100.0    5 
30/08/16   4:35   13.6   13.6   13.6    90   11.9   0.0   ---   0.00   0.0   ---   13.6   13.6   13.6  1023.9  0.00  0.00   0.017   0.000   21.6    58   13.0   21.2  10.71  .0745    117    1    100.0    5 
30/08/16   4:40   13.6   13.6   13.6    90   11.9   0.0   ---   0.00   0.0   ---   13.6   13.6   13.6  1023.9  0.00  0.00   0.017   0.000   21.6    58   13.0   21.2  10.71  .0745    116    1    100.0    5 
30/08/16   4:45   13.6   13.6   13.6    90   11.9   0.0   ---   0.00   0.0   ---   13.6   13.6   13.6  1023.9  0.00  0.00   0.017   0.000   21.6    58   13.0   21.2  10.71  .0745    117    1    100.0    5 
30/08/16   4:50   13.6   13.6   13.6    90   11.9   2.0     N   0.17   5.0     N   13.6   13.6   13.6  1023.9  0.00  0.00   0.017   0.000   21.6    57   12.7   21.1  10.52  .0745    116    1    100.0    5 
30/08/16   4:55   13.5   13.6   13.5    90   11.9   4.0     N   0.33   6.0     N   13.4   13.6   13.5  1023.9  0.00  0.00   0.017   0.000   21.6    57   12.7   21.1  10.52  .0745    118    1    100.0    5 
30/08/16   5:00   13.4   13.5   13.4    90   11.8   2.0   NNE   0.17   5.0   NNE   13.4   13.5   13.5  1023.9  0.00  0.00   0.017   0.000   21.4    57   12.6   20.9  10.53  .0746    117    1    100.0    5 
30/08/16   5:05   13.4   13.4   13.4    90   11.8   0.0   NNE   0.00   3.0   NNE   13.4   13.5   13.5  1024.0  0.00  0.00   0.017   0.000   21.4    57   12.6   20.9  10.53  .0746    117    1    100.0    5 
30/08/16   5:10   13.4   13.4   13.4    90   11.8   1.0   NNE   0.08   3.0   NNE   13.4   13.5   13.5  1023.9  0.00  0.00   0.017   0.000   21.4    58   12.8   20.9  10.73  .0746    117    1    100.0    5 
30/08/16   5:15   13.4   13.5   13.4    90   11.8   1.0   NNE   0.08   3.0   NNE   13.4   13.5   13.5  1023.9  0.00  0.00   0.017   0.000   21.4    58   12.8   20.9  10.73  .0746    117    1    100.0    5 
30/08/16   5:20   13.4   13.5   13.4    90   11.8   0.0   NNE   0.00   1.0   NNE   13.4   13.5   13.5  1024.0  0.00  0.00   0.017   0.000   21.3    58   12.7   20.8  10.73  .0746    116    1    100.0    5 
30/08/16   5:25   13.4   13.4   13.4    90   11.8   0.0   ---   0.00   0.0   ---   13.4   13.4   13.4  1023.9  0.00  0.00   0.017   0.000   21.3    58   12.7   20.8  10.73  .0746    115    1    100.0    5 
30/08/16   5:30   13.4   13.4   13.4    90   11.8   0.0   NNE   0.00   2.0   NNE   13.4   13.4   13.4  1023.9  0.00  0.00   0.017   0.000   21.3    58   12.7   20.8  10.73  .0746    117    1    100.0    5 
30/08/16   5:35   13.3   13.4   13.3    90   11.7   0.0   ---   0.00   0.0   ---   13.3   13.4   13.4  1023.9  0.00  0.00   0.017   0.000   21.3    58   12.7   20.8  10.74  .0746    115    1    100.0    5 
30/08/16   5:40   13.3   13.3   13.3    90   11.7   0.0   NNE   0.00   2.0   NNE   13.3   13.4   13.4  1024.0  0.00  0.00   0.017   0.000   21.3    58   12.7   20.8  10.74  .0746    117    1    100.0    5 
30/08/16   5:45   13.3   13.3   13.3    90   11.7   2.0   NNE   0.17   3.0   NNE   13.3   13.3   13.3  1024.0  0.00  0.00   0.018   0.000   21.2    57   12.4   20.7  10.54  .0746    117    1    100.0    5 
30/08/16   5:50   13.2   13.3   13.2    90   11.6   3.0     N   0.25   5.0     N   13.2   13.3   13.3  1024.1  0.00  0.00   0.018   0.000   21.2    57   12.3   20.6  10.55  .0747    116    1    100.0    5 
30/08/16   5:55   13.2   13.3   13.2    90   11.6   4.0     N   0.33   5.0   NNW   13.1   13.3   13.2  1024.2  0.00  0.00   0.018   0.000   21.1    58   12.5   20.6  10.75  .0747    117    1    100.0    5 
30/08/16   6:00   13.1   13.2   13.1    90   11.5   2.0     N   0.17   4.0     N   13.1   13.2   13.2  1024.3  0.00  0.00   0.018   0.000   21.1    57   12.2   20.4  10.55  .0747    116    1    100.0    5 
30/08/16   6:05   13.1   13.1   13.1    90   11.5   3.0     N   0.25   4.0     N   13.1   13.1   13.1  1024.2  0.00  0.00   0.018   0.000   20.9    58   12.4   20.4  10.75  .0747    116    1    100.0    5 
30/08/16   6:10   13.0   13.1   13.0    90   11.4   3.0     N   0.25   4.0     N   13.0   13.1   13.1  1024.1  0.00  0.00   0.019   0.000   20.9    58   12.3   20.4  10.75  .0747    117    1    100.0    5 
30/08/16   6:15   12.9   13.0   12.9    90   11.3   2.0     N   0.17   3.0     N   12.9   13.0   13.0  1024.1  0.00  0.00   0.019   0.000   20.8    58   12.3   20.3  10.75  .0747    117    1    100.0    5 
30/08/16   6:20   12.9   12.9   12.9    90   11.3   2.0     N   0.17   4.0     N   12.9   12.9   12.9  1024.2  0.00  0.00   0.019   0.000   20.7    58   12.2   20.3  10.75  .0748    117    1    100.0    5 
30/08/16   6:25   12.8   12.9   12.8    91   11.4   4.0     N   0.33   5.0     N   12.6   12.9   12.7  1024.3  0.00  0.00   0.019   0.000   20.7    58   12.1   20.2  10.75  .0748    117    1    100.0    5 
30/08/16   6:30   12.8   12.9   12.8    91   11.4   3.0   NNE   0.25   5.0     N   12.8   12.9   12.9  1024.1  0.00  0.00   0.019   0.000   20.6    58   12.1   20.2  10.75  .0748    117    1    100.0    5 
30/08/16   6:35   12.8   12.8   12.8    91   11.4   4.0     N   0.33   5.0     N   12.6   12.9   12.7  1024.2  0.00  0.00   0.019   0.000   20.5    58   12.0   20.1  10.75  .0749    117    1    100.0    5 
30/08/16   6:40   12.8   12.8   12.8    91   11.4   3.0   NNE   0.25   5.0   NNE   12.8   12.9   12.9  1024.3  0.00  0.00   0.019   0.000   20.4    58   11.8   20.0  10.75  .0749    117    1    100.0    5 
30/08/16   6:45   12.9   12.9   12.8    91   11.5   3.0     N   0.25   5.0     N   12.9   12.9   12.9  1024.3  0.00  0.00   0.019   0.000   20.3    59   12.1   20.0  10.95  .0749    116    1    100.0    5 
30/08/16   6:50   12.9   12.9   12.9    91   11.5   3.0     N   0.25   5.0     N   12.9   13.0   13.0  1024.3  0.00  0.00   0.019   0.000   20.2    59   11.9   19.9  10.95  .0749    117    1    100.0    5 
30/08/16   6:55   13.0   13.0   12.9    91   11.6   3.0     N   0.25   5.0     N   13.0   13.1   13.1  1024.3  0.00  0.00   0.019   0.000   20.2    59   11.9   19.9  10.95  .0750    116    1    100.0    5 
30/08/16   7:00   13.1   13.1   13.0    91   11.6   3.0     N   0.25   5.0     N   13.1   13.1   13.1  1024.4  0.00  0.00   0.018   0.000   20.1    60   12.1   19.9  11.05  .0750    117    1    100.0    5 
30/08/16   7:05   13.1   13.1   13.1    91   11.7   4.0     N   0.33   5.0     N   12.9   13.2   13.0  1024.4  0.00  0.00   0.018   0.000   20.1    60   12.0   19.9  11.05  .0750    117    1    100.0    5 
30/08/16   7:10   13.2   13.2   13.1    91   11.8   3.0   NNE   0.25   4.0   NNE   13.2   13.3   13.3  1024.4  0.00  0.00   0.018   0.000   20.0    60   12.0   19.8  11.05  .0750    117    1    100.0    5 
30/08/16   7:15   13.3   13.3   13.2    91   11.8   3.0   NNE   0.25   4.0   NNE   13.3   13.3   13.3  1024.5  0.00  0.00   0.018   0.000   20.0    60   12.0   19.8  11.05  .0750    117    1    100.0    5 
30/08/16   7:20   13.4   13.4   13.3    92   12.1   3.0   ENE   0.25   5.0     N   13.4   13.4   13.4  1024.5  0.00  0.00   0.017   0.000   19.9    61   12.2   19.8  11.25  .0750    117    1    100.0    5 
30/08/16   7:25   13.5   13.5   13.4    92   12.2   3.0     N   0.25   4.0     N   13.5   13.6   13.6  1024.5  0.00  0.00   0.017   0.000   19.9    61   12.2   19.8  11.25  .0750    117    1    100.0    5 
30/08/16   7:30   13.7   13.7   13.5    92   12.4   2.0     N   0.17   4.0     N   13.7   13.7   13.7  1024.5  0.00  0.00   0.016   0.000   19.9    62   12.4   19.9  11.39  .0750    116    1    100.0    5 
30/08/16   7:35   13.8   13.8   13.7    92   12.6   2.0     N   0.17   3.0     N   13.8   13.9   13.9  1024.4  0.00  0.00   0.016   0.000   20.0    62   12.5   19.9  11.39  .0750    117    1    100.0    5 
30/08/16   7:40   14.0   14.0   13.8    92   12.7   2.0     N   0.17   3.0     N   14.0   14.1   14.1  1024.4  0.00  0.00   0.015   0.000   20.0    62   12.5   19.9  11.39  .0750    117    1    100.0    5 
30/08/16   7:45   14.2   14.2   14.0    92   12.9   2.0     N   0.17   4.0     N   14.2   14.3   14.3  1024.4  0.00  0.00   0.014   0.000   20.1    62   12.6   20.0  11.39  .0749    117    1    100.0    5 
30/08/16   7:50   14.4   14.4   14.2    92   13.1   2.0     N   0.17   3.0     N   14.4   14.5   14.5  1024.5  0.00  0.00   0.014   0.000   20.2    62   12.7   20.1  11.38  .0749    117    1    100.0    5 
30/08/16   7:55   14.7   14.7   14.4    92   13.4   2.0     N   0.17   4.0     N   14.7   14.8   14.8  1024.4  0.00  0.00   0.013   0.000   20.2    63   12.9   20.2  11.58  .0749    115    1    100.0    5 
30/08/16   8:00   14.8   14.8   14.7    91   13.4   2.0     N   0.17   3.0     N   14.8   14.9   14.9  1024.4  0.00  0.00   0.012   0.000   20.3    63   13.1   20.2  11.58  .0748    116    1    100.0    5 
30/08/16   8:05   15.1   15.1   14.8    91   13.6   2.0     N   0.17   3.0     N   15.1   15.2   15.2  1024.4  0.00  0.00   0.011   0.000   20.4    63   13.1   20.3  11.58  .0748    117    1    100.0    5 
30/08/16   8:10   15.3   15.3   15.3    91   13.8   1.0     N   0.08   1.0     N   15.3   15.4   15.4  1024.5  0.00  0.00   0.011   0.000   20.4    63   13.2   20.3  11.57  .0748      5    1      4.4    5 
30/08/16   8:15   15.6   15.6   15.3    91   14.1   1.0     N   0.08   3.0     N   15.6   15.7   15.7  1024.5  0.00  0.00   0.010   0.000   20.6    63   13.3   20.4  11.57  .0748    118    1    100.0    5 
30/08/16   8:20   15.8   15.8   15.6    91   14.4   1.0     N   0.08   3.0     N   15.8   16.1   16.1  1024.5  0.00  0.00   0.009   0.000   20.6    63   13.3   20.4  11.57  .0748    116    1    100.0    5 
30/08/16   8:25   16.1   16.1   15.8    90   14.5   1.0     N   0.08   3.0     N   16.1   16.3   16.3  1024.5  0.00  0.00   0.008   0.000   20.7    64   13.7   20.6  11.66  .0747    117    1    100.0    5 
30/08/16   8:30   16.4   16.4   16.1    90   14.8   0.0     N   0.00   2.0     N   16.4   16.7   16.7  1024.5  0.00  0.00   0.007   0.000   20.8    64   13.8   20.7  11.66  .0747    116    1    100.0    5 
30/08/16   8:35   16.8   16.8   16.4    89   15.0   1.0   NNE   0.08   3.0     N   16.8   17.1   17.1  1024.5  0.00  0.00   0.005   0.000   20.9    64   13.9   20.8  11.66  .0746    117    1    100.0    5 
30/08/16   8:40   17.2   17.2   16.8    89   15.4   1.0   NNE   0.08   5.0     E   17.2   17.6   17.6  1024.6  0.00  0.00   0.004   0.000   21.0    64   13.9   20.8  11.65  .0746    116    1    100.0    5 
30/08/16   8:45   17.7   17.7   17.2    89   15.8   2.0     E   0.17   5.0   ESE   17.7   18.1   18.1  1024.6  0.00  0.00   0.002   0.000   21.1    64   14.0   20.9  11.65  .0746    117    1    100.0    5 
30/08/16   8:50   18.2   18.2   17.7    88   16.1   2.0     E   0.17   5.0   ESE   18.2   18.7   18.7  1024.6  0.00  0.00   0.001   0.000   21.2    63   13.8   20.9  11.55  .0746    117    1    100.0    5 
30/08/16   8:55   18.7   18.7   18.2    88   16.7   3.0   ESE   0.25   5.0   ESE   18.7   19.3   19.3  1024.7  0.00  0.00   0.000   0.001   21.3    63   13.9   21.1  11.54  .0745    115    1    100.0    5 
30/08/16   9:00   19.2   19.2   18.8    86   16.8   3.0     E   0.25   7.0     E   19.2   19.9   19.9  1024.7  0.00  0.00   0.000   0.003   21.3    63   14.0   21.1  11.54  .0745    115    1    100.0    5 
30/08/16   9:05   19.6   19.6   19.2    85   17.0   3.0     E   0.25   6.0   ESE   19.6   20.4   20.4  1024.8  0.00  0.00   0.000   0.004   21.4    63   14.1   21.2  11.54  .0745    117    1    100.0    5 
30/08/16   9:10   20.0   20.0   19.6    83   17.0   3.0     E   0.25   5.0     E   20.0   20.8   20.8  1024.8  0.00  0.00   0.000   0.006   21.5    63   14.2   21.3  11.54  .0745    117    1    100.0    5 
30/08/16   9:15   20.4   20.4   20.0    82   17.3   3.0     E   0.25   6.0     E   20.4   21.3   21.3  1024.8  0.00  0.00   0.000   0.007   21.6    63   14.3   21.4  11.53  .0745    118    1    100.0    5 
30/08/16   9:20   20.8   20.8   20.4    81   17.5   5.0   ESE   0.42   8.0   ESE   20.8   21.6   21.6  1024.9  0.00  0.00   0.000   0.009   21.7    63   14.3   21.5  11.53  .0744    116    1    100.0    5 
30/08/16   9:25   21.0   21.0   20.8    81   17.6   5.0   ESE   0.42   8.0   ESE   21.0   21.7   21.7  1024.9  0.00  0.00   0.000   0.009   21.7    63   14.4   21.6  11.53  .0744    117    1    100.0    5 
30/08/16   9:30   21.1   21.1   21.0    80   17.5   4.0   ESE   0.33   8.0   ESE   21.1   21.7   21.7  1024.9  0.00  0.00   0.000   0.010   21.8    63   14.5   21.8  11.52  .0744    117    1    100.0    5 
30/08/16   9:35   21.2   21.2   21.1    80   17.6   5.0   ESE   0.42   7.0   ESE   21.2   21.8   21.8  1025.0  0.00  0.00   0.000   0.010   21.9    63   14.5   21.8  11.52  .0744    116    1    100.0    5 
30/08/16   9:40   21.3   21.3   21.2    80   17.7   4.0     E   0.33   7.0   ESE   21.3   22.0   22.0  1024.9  0.00  0.00   0.000   0.010   21.9    63   14.6   21.9  11.52  .0744    116    1    100.0    5 
30/08/16   9:45   21.5   21.5   21.4    79   17.7   4.0   ESE   0.33   7.0   ESE   21.5   22.1   22.1  1025.0  0.00  0.00   0.000   0.011   22.1    63   14.7   22.1  11.52  .0743    116    1    100.0    5 
30/08/16   9:50   21.7   21.7   21.5    79   17.9   4.0   ESE   0.33   7.0   ESE   21.7   22.3   22.3  1025.0  0.00  0.00   0.000   0.012   22.1    63   14.7   22.2  11.51  .0743    117    1    100.0    5 
30/08/16   9:55   21.8   21.8   21.7    78   17.8   6.0   ESE   0.50   9.0     E   21.8   22.4   22.4  1025.0  0.00  0.00   0.000   0.012   22.2    64   15.0   22.3  11.65  .0743    117    1    100.0    5 
30/08/16  10:00   21.9   21.9   21.8    78   17.9   7.0   ESE   0.58   9.0   ESE   21.9   22.6   22.6  1025.1  0.00  0.00   0.000   0.012   22.3    63   14.9   22.4  11.51  .0743    117    1    100.0    5 
30/08/16  10:05   21.9   21.9   21.9    77   17.7   7.0   ESE   0.58   9.0   ESE   21.9   22.6   22.6  1025.0  0.00  0.00   0.000   0.013   22.3    63   14.9   22.4  11.51  .0742    117    1    100.0    5 
30/08/16  10:10   22.0   22.0   21.9    78   18.0   7.0   ESE   0.58  10.0   ESE   22.0   22.7   22.7  1025.1  0.00  0.00   0.000   0.013   22.4    64   15.2   22.6  11.65  .0742    117    1    100.0    5 
30/08/16  10:15   22.1   22.1   22.0    78   18.0   7.0   ESE   0.58  10.0   ESE   22.1   22.7   22.7  1025.1  0.00  0.00   0.000   0.013   22.5    64   15.3   22.7  11.65  .0742    116    1    100.0    5 
30/08/16  10:20   22.1   22.1   22.1    79   18.3   6.0   ESE   0.50   9.0   ESE   22.1   22.8   22.8  1025.0  0.00  0.00   0.000   0.013   22.6    64   15.4   22.8  11.65  .0741    118    1    100.0    5 
30/08/16  10:25   22.2   22.2   22.1    79   18.4   5.0   ESE   0.42   8.0     E   22.2   22.9   22.9  1025.0  0.00  0.00   0.000   0.014   22.6    64   15.5   22.9  11.65  .0741    117    1    100.0    5 
30/08/16  10:30   22.3   22.3   22.2    79   18.5   5.0     E   0.42   8.0   ESE   22.3   23.1   23.1  1025.1  0.00  0.00   0.000   0.014   22.7    64   15.6   23.1  11.65  .0741    116    1    100.0    5 
30/08/16  10:35   22.5   22.5   22.3    79   18.7   5.0   ESE   0.42   9.0   ESE   22.5   23.3   23.3  1025.0  0.00  0.00   0.000   0.014   22.8    64   15.6   23.1  11.65  .0741    117    1    100.0    5 
30/08/16  10:40   22.5   22.6   22.5    78   18.5   4.0     E   0.33   7.0   ESE   22.5   23.3   23.3  1025.0  0.00  0.00   0.000   0.014   22.8    64   15.7   23.2  11.65  .0740    116    1    100.0    5 
30/08/16  10:45   22.7   22.7   22.5    78   18.6   5.0     E   0.42   9.0   ESE   22.7   23.6   23.6  1025.0  0.00  0.00   0.000   0.015   22.9    64   15.7   23.3  11.65  .0740    116    1    100.0    5 
30/08/16  10:50   22.8   22.8   22.7    78   18.8   5.0     E   0.42   8.0   ESE   22.8   23.8   23.8  1024.9  0.00  0.00   0.000   0.016   23.0    64   15.8   23.4  11.65  .0740    117    1    100.0    5 
30/08/16  10:55   23.0   23.0   22.8    78   19.0   5.0     E   0.42   7.0   ESE   23.0   24.0   24.0  1024.9  0.00  0.00   0.000   0.016   23.1    64   15.9   23.6  11.65  .0740    116    1    100.0    5 
30/08/16  11:00   23.2   23.2   23.0    77   19.0   5.0   ESE   0.42   9.0   ESE   23.2   24.3   24.3  1024.9  0.00  0.00   0.000   0.017   23.1    64   15.9   23.6  11.65  .0739    115    1    100.0    5 
30/08/16  11:05   23.4   23.4   23.2    77   19.1   5.0     E   0.42   9.0     E   23.4   24.5   24.5  1024.9  0.00  0.00   0.000   0.018   23.2    64   16.0   23.7  11.65  .0739    116    1    100.0    5 
30/08/16  11:10   23.5   23.5   23.4    76   19.0   5.0     E   0.42   9.0     E   23.5   24.6   24.6  1024.8  0.00  0.00   0.000   0.018   23.3    64   16.1   23.9  11.65  .0739    117    1    100.0    5 
30/08/16  11:15   23.6   23.6   23.5    76   19.1   6.0   ESE   0.50   9.0   ESE   23.6   24.7   24.7  1024.8  0.00  0.00   0.000   0.018   23.3    64   16.1   23.9  11.65  .0739    117    1    100.0    5 
30/08/16  11:20   23.7   23.7   23.6    76   19.2   6.0   ESE   0.50   9.0   ESE   23.7   24.8   24.8  1024.9  0.00  0.00   0.000   0.019   23.4    64   16.2   24.0  11.65  .0739    118    1    100.0    5 
30/08/16  11:25   23.8   23.8   23.7    76   19.3   5.0   ESE   0.42   9.0   ESE   23.8   25.1   25.1  1024.8  0.00  0.00   0.000   0.019   23.4    64   16.2   24.1  11.65  .0738    116    1    100.0    5 
30/08/16  11:30   23.9   23.9   23.8    75   19.2   6.0   ESE   0.50  10.0   ESE   23.9   25.1   25.1  1024.9  0.00  0.00   0.000   0.019   23.6    64   16.3   24.2  11.65  .0738    116    1    100.0    5 
30/08/16  11:35   24.1   24.1   23.9    75   19.3   7.0   ESE   0.58   9.0     E   24.1   25.3   25.3  1024.8  0.00  0.00   0.000   0.020   23.7    64   16.5   24.3  11.65  .0738    117    1    100.0    5 
30/08/16  11:40   24.2   24.2   24.1    75   19.5   7.0   ESE   0.58  10.0     E   24.2   25.4   25.4  1024.8  0.00  0.00   0.000   0.020   23.7    64   16.5   24.4  11.65  .0737    117    1    100.0    5 
30/08/16  11:45   24.2   24.2   24.2    74   19.3   8.0   ESE   0.67  11.0   ESE   23.9   25.4   25.2  1024.8  0.00  0.00   0.000   0.020   23.8    64   16.6   24.4  11.65  .0737    117    1    100.0    5 
30/08/16  11:50   24.2   24.2   24.2    74   19.3   7.0   ESE   0.58  10.0   ESE   24.2   25.4   25.4  1024.8  0.00  0.00   0.000   0.020   23.8    64   16.6   24.5  11.65  .0737    117    1    100.0    5 
30/08/16  11:55   24.3   24.3   24.2    74   19.3   7.0   ESE   0.58   9.0   ESE   24.3   25.5   25.5  1024.8  0.00  0.00   0.000   0.021   23.9    64   16.7   24.6  11.65  .0737    117    1    100.0    5 
30/08/16  12:00   24.2   24.3   24.2    74   19.2   7.0   ESE   0.58   9.0   ESE   24.2   25.3   25.3  1024.9  0.00  0.00   0.000   0.020   24.0    64   16.8   24.7  11.65  .0737    117    1    100.0    5 
30/08/16  12:05   24.2   24.2   24.2    75   19.5   7.0   ESE   0.58  10.0   ESE   24.2   25.5   25.5  1024.9  0.00  0.00   0.000   0.020   24.1    64   16.8   24.7  11.64  .0736    116    1    100.0    5 
30/08/16  12:10   24.3   24.3   24.2    75   19.6   7.0    SE   0.58   9.0    SE   24.3   25.6   25.6  1024.8  0.00  0.00   0.000   0.021   24.2    64   16.9   24.8  11.64  .0736    117    1    100.0    5 
30/08/16  12:15   24.3   24.3   24.3    74   19.4   7.0    SE   0.58  10.0    SE   24.3   25.6   25.6  1024.9  0.00  0.00   0.000   0.021   24.2    64   17.0   24.8  11.64  .0736    117    1    100.0    5 
30/08/16  12:20   24.3   24.3   24.3    74   19.4   7.0    SE   0.58   9.0    SE   24.3   25.6   25.6  1024.9  0.00  0.00   0.000   0.021   24.3    64   17.1   24.9  11.63  .0735    117    1    100.0    5 
30/08/16  12:25   24.3   24.3   24.3    74   19.4   6.0    SE   0.50   8.0    SE   24.3   25.6   25.6  1024.8  0.00  0.00   0.000   0.021   24.4    64   17.1   25.0  11.63  .0735    117    1    100.0    5 
30/08/16  12:30   24.4   24.4   24.3    74   19.5   7.0    SE   0.58   9.0    SE   24.4   25.7   25.7  1024.8  0.00  0.00   0.000   0.021   24.5    64   17.2   25.1  11.63  .0735    116    1    100.0    5 
30/08/16  12:35   24.4   24.4   24.4    73   19.2   6.0    SE   0.50   8.0   ESE   24.4   25.6   25.6  1024.7  0.00  0.00   0.000   0.021   24.6    64   17.3   25.2  11.63  .0735    117    1    100.0    5 
30/08/16  12:40   24.3   24.4   24.3    74   19.4   6.0    SE   0.50   8.0    SE   24.3   25.6   25.6  1024.7  0.00  0.00   0.000   0.021   24.6    64   17.3   25.2  11.62  .0734    117    1    100.0    5 
30/08/16  12:45   24.3   24.3   24.3    74   19.3   5.0    SE   0.42   8.0    SE   24.3   25.5   25.5  1024.6  0.00  0.00   0.000   0.021   24.7    64   17.5   25.4  11.62  .0734    116    1    100.0    5 
30/08/16  12:50   24.4   24.4   24.3    74   19.5   5.0    SE   0.42   7.0   ESE   24.4   25.7   25.7  1024.6  0.00  0.00   0.000   0.021   24.8    64   17.5   25.4  11.62  .0734    117    1    100.0    5 
30/08/16  12:55   24.3   24.4   24.3    73   19.2   6.0    SE   0.50   7.0    SE   24.3   25.5   25.5  1024.6  0.00  0.00   0.000   0.021   24.9    64   17.6   25.6  11.61  .0733    117    1    100.0    5 
30/08/16  13:00   24.4   24.4   24.3    74   19.5   6.0    SE   0.50   8.0    SE   24.4   25.7   25.7  1024.6  0.00  0.00   0.000   0.021   24.9    64   17.7   25.6  11.61  .0733    117    1    100.0    5 
30/08/16  13:05   24.6   24.6   24.4    74   19.7   6.0    SE   0.50   8.0    SE   24.6   25.9   25.9  1024.6  0.00  0.00   0.000   0.022   25.0    64   17.7   25.7  11.61  .0733    115    1    100.0    5 
30/08/16  13:10   24.6   24.6   24.6    73   19.4   6.0    SE   0.50   8.0    SE   24.6   25.8   25.8  1024.6  0.00  0.00   0.000   0.022   25.1    64   17.8   25.7  11.61  .0733    117    1    100.0    5 
30/08/16  13:15   24.1   24.6   24.1    73   19.0   6.0    SE   0.50   8.0    SE   24.1   25.2   25.2  1024.4  0.00  0.00   0.000   0.020   25.2    64   17.9   25.8  11.60  .0732    116    1    100.0    5 
30/08/16  13:20   23.9   24.1   23.9    74   19.0   6.0    SE   0.50   8.0   ESE   23.9   25.0   25.0  1024.3  0.00  0.00   0.000   0.019   25.2    64   17.9   25.9  11.60  .0732    116    1    100.0    5 
30/08/16  13:25   23.8   23.9   23.8    74   18.9   6.0    SE   0.50   8.0    SE   23.8   24.9   24.9  1024.4  0.00  0.00   0.000   0.019   25.3    63   17.8   26.0  11.40  .0732    116    1    100.0    5 
30/08/16  13:30   23.8   23.8   23.8    75   19.1   6.0    SE   0.50   8.0    SE   23.8   25.0   25.0  1024.3  0.00  0.00   0.000   0.019   25.4    63   17.8   26.1  11.40  .0732    117    1    100.0    5 
30/08/16  13:35   23.8   23.9   23.8    74   18.9   6.0    SE   0.50   9.0    SE   23.8   24.9   24.9  1024.3  0.00  0.00   0.000   0.019   25.4    63   17.9   26.1  11.39  .0732    117    1    100.0    5 
30/08/16  13:40   23.8   23.8   23.8    75   19.1   7.0    SE   0.58   9.0    SE   23.8   25.0   25.0  1024.3  0.00  0.00   0.000   0.019   25.5    63   17.9   26.2  11.39  .0731    117    1    100.0    5 
30/08/16  13:45   23.6   23.9   23.6    75   18.9   6.0   SSE   0.50   8.0   SSE   23.6   24.7   24.7  1024.2  0.00  0.00   0.000   0.018   25.6    63   18.0   26.3  11.39  .0731    117    1    100.0    5 
30/08/16  13:50   23.7   23.7   23.6    75   19.0   6.0    SE   0.50   8.0    SE   23.7   24.8   24.8  1024.2  0.00  0.00   0.000   0.019   25.7    63   18.1   26.4  11.39  .0731    117    1    100.0    5 
30/08/16  13:55   23.4   23.7   23.4    74   18.5   6.0    SE   0.50   9.0    SE   23.4   24.5   24.5  1024.1  0.00  0.00   0.000   0.018   25.7    63   18.1   26.4  11.38  .0730    117    1    100.0    5 
30/08/16  14:00   23.4   23.4   23.3    75   18.7   6.0   SSE   0.50   8.0    SE   23.4   24.4   24.4  1024.1  0.00  0.00   0.000   0.018   25.8    63   18.2   26.5  11.38  .0730    115    1    100.0    5 
30/08/16  14:05   23.3   23.4   23.3    74   18.4   6.0   SSE   0.50   8.0   SSE   23.3   24.3   24.3  1024.0  0.00  0.00   0.000   0.017   25.9    63   18.3   26.7  11.38  .0730    116    1    100.0    5 
30/08/16  14:10   23.0   23.3   23.0    75   18.3   6.0   SSE   0.50   9.0   SSE   23.0   23.9   23.9  1023.8  0.00  0.00   0.000   0.016   25.9    63   18.4   26.7  11.38  .0730    117    1    100.0    5 
30/08/16  14:15   22.9   23.0   22.9    77   18.7   6.0   SSE   0.50   8.0   SSE   22.9   23.9   23.9  1023.8  0.00  0.00   0.000   0.016   26.1    63   18.5   26.8  11.37  .0729    117    1    100.0    5 
30/08/16  14:20   22.8   22.9   22.8    77   18.6   6.0   SSE   0.50   8.0   SSE   22.8   23.8   23.8  1023.8  0.00  0.00   0.000   0.016   26.1    62   18.3   26.8  11.17  .0729    117    1    100.0    5 
30/08/16  14:25   22.8   22.9   22.8    76   18.3   5.0   SSE   0.42   7.0   SSE   22.8   23.7   23.7  1023.8  0.00  0.00   0.000   0.015   26.2    62   18.4   27.0  11.17  .0729    115    1    100.0    5 
30/08/16  14:30   22.5   22.8   22.5    76   18.1   6.0     S   0.50   8.0     S   22.5   23.2   23.2  1023.8  0.00  0.00   0.000   0.014   26.3    62   18.4   27.1  11.16  .0729    118    1    100.0    5 
30/08/16  14:35   22.2   22.5   22.2    78   18.1   5.0     S   0.42   7.0     S   22.2   22.8   22.8  1023.8  0.00  0.00   0.000   0.013   26.3    62   18.5   27.1  11.16  .0728    116    1    100.0    5 
30/08/16  14:40   21.7   22.1   21.7    79   17.9   6.0     S   0.50   7.0     S   21.7   22.4   22.4  1023.7  0.00  0.00   0.000   0.012   26.4    62   18.5   27.2  11.16  .0728    116    1    100.0    5 
30/08/16  14:45   21.4   21.7   21.4    80   17.8   5.0     S   0.42   6.0     S   21.4   22.1   22.1  1023.7  0.00  0.00   0.000   0.011   26.4    61   18.3   27.2  10.96  .0728    117    1    100.0    5 
30/08/16  14:50   21.3   21.4   21.3    80   17.7   5.0     S   0.42   7.0     S   21.3   21.9   21.9  1023.7  0.00  0.00   0.000   0.010   26.5    61   18.4   27.3  10.96  .0728    117    1    100.0    5 
30/08/16  14:55   21.2   21.3   21.2    80   17.6   5.0     S   0.42   6.0     S   21.2   21.8   21.8  1023.6  0.00  0.00   0.000   0.010   26.5    60   18.1   27.2  10.76  .0728    116    1    100.0    5 
30/08/16  15:00   21.2   21.2   21.1    82   18.0   5.0     S   0.42   6.0     S   21.2   21.9   21.9  1023.6  0.00  0.00   0.000   0.010   26.4    61   18.3   27.2  10.96  .0728    117    1    100.0    5 
30/08/16  15:05   21.2   21.2   21.2    81   17.8   5.0     S   0.42   6.0     S   21.2   21.8   21.8  1023.5  0.00  0.00   0.000   0.010   26.4    61   18.3   27.1  10.96  .0728    115    1    100.0    5 
30/08/16  15:10   21.1   21.2   21.1    82   17.9   5.0     S   0.42   6.0     S   21.1   21.8   21.8  1023.5  0.00  0.00   0.000   0.009   26.4    61   18.3   27.1  10.96  .0728    117    1    100.0    5 
30/08/16  15:15   21.1   21.1   21.0    82   17.9   5.0     S   0.42   7.0     S   21.1   21.8   21.8  1023.4  0.00  0.00   0.000   0.009   26.4    60   18.1   27.1  10.77  .0728    117    1    100.0    5 
30/08/16  15:20   21.2   21.2   21.1    83   18.2   5.0     S   0.42   7.0     S   21.2   21.9   21.9  1023.3  0.00  0.00   0.000   0.010   26.4    60   18.0   27.1  10.77  .0728    117    1    100.0    5 
30/08/16  15:25   21.2   21.2   21.1    82   18.0   5.0     S   0.42   6.0   SSE   21.2   21.9   21.9  1023.3  0.00  0.00   0.000   0.010   26.4    60   18.0   27.1  10.77  .0728    117    1    100.0    5 
30/08/16  15:30   21.2   21.3   21.2    82   18.0   5.0     S   0.42   7.0     S   21.2   21.9   21.9  1023.3  0.00  0.00   0.000   0.010   26.3    60   17.9   27.0  10.77  .0729    116    1    100.0    5 
30/08/16  15:35   21.1   21.2   21.1    82   17.9   5.0     S   0.42   7.0     S   21.1   21.8   21.8  1023.3  0.00  0.00   0.000   0.010   26.3    60   17.9   27.0  10.77  .0729    117    1    100.0    5 
30/08/16  15:40   21.1   21.1   21.0    83   18.1   5.0     S   0.42   7.0     S   21.1   21.8   21.8  1023.2  0.00  0.00   0.000   0.009   26.3    61   18.2   27.1  10.96  .0728    117    1    100.0    5 
30/08/16  15:45   20.9   21.1   20.9    82   17.8   5.0     S   0.42   7.0     S   20.9   21.7   21.7  1023.2  0.00  0.00   0.000   0.009   26.3    61   18.2   27.0  10.96  .0728    117    1    100.0    5 
30/08/16  15:50   21.1   21.1   20.9    83   18.1   5.0     S   0.42   6.0     S   21.1   21.8   21.8  1023.2  0.00  0.00   0.000   0.010   26.3    61   18.2   27.0  10.96  .0728    117    1    100.0    5 
30/08/16  15:55   20.9   21.1   20.9    83   17.9   5.0     S   0.42   6.0     S   20.9   21.7   21.7  1023.2  0.00  0.00   0.000   0.009   26.3    61   18.2   27.0  10.96  .0728    115    1    100.0    5 
30/08/16  16:00   20.8   20.9   20.8    83   17.8   5.0     S   0.42   6.0   SSW   20.8   21.6   21.6  1023.2  0.00  0.00   0.000   0.008   26.2    61   18.1   26.9  10.97  .0729    117    1    100.0    5 
30/08/16  16:05   20.8   20.8   20.7    84   18.0   5.0     S   0.42   7.0     S   20.8   21.7   21.7  1023.1  0.00  0.00   0.000   0.008   26.2    61   18.1   26.9  10.97  .0729    117    1    100.0    5 
30/08/16  16:10   20.9   20.9   20.8    83   17.9   5.0     S   0.42   7.0     S   20.9   21.7   21.7  1023.1  0.00  0.00   0.000   0.009   26.2    61   18.1   26.9  10.97  .0729    117    1    100.0    5 
30/08/16  16:15   20.9   20.9   20.8    84   18.1   5.0     S   0.42   6.0   SSW   20.9   21.8   21.8  1023.0  0.00  0.00   0.000   0.009   26.2    61   18.1   26.9  10.97  .0728    117    1    100.0    5 
30/08/16  16:20   20.9   20.9   20.8    83   17.9   5.0     S   0.42   7.0     S   20.9   21.7   21.7  1022.9  0.00  0.00   0.000   0.009   26.2    61   18.1   26.9  10.97  .0728    116    1    100.0    5 
30/08/16  16:25   20.9   20.9   20.8    84   18.1   5.0     S   0.42   7.0     S   20.9   21.7   21.7  1022.8  0.00  0.00   0.000   0.009   26.2    61   18.1   26.9  10.97  .0728    116    1    100.0    5 
30/08/16  16:30   20.9   20.9   20.8    83   17.9   4.0     S   0.33   6.0     S   20.9   21.7   21.7  1022.7  0.00  0.00   0.000   0.009   26.2    61   18.1   26.9  10.97  .0728    117    1    100.0    5 
30/08/16  16:35   20.8   20.8   20.8    83   17.8   4.0     S   0.33   6.0     S   20.8   21.7   21.7  1022.6  0.00  0.00   0.000   0.009   26.2    61   18.1   26.9  10.97  .0728    118    1    100.0    5 
30/08/16  16:40   20.9   20.9   20.8    83   17.9   4.0     S   0.33   7.0     S   20.9   21.7   21.7  1022.6  0.00  0.00   0.000   0.009   26.2    60   17.8   26.8  10.78  .0728    117    1    100.0    5 
30/08/16  16:45   21.0   21.1   20.9    83   18.0   4.0     S   0.33   7.0     S   21.0   21.8   21.8  1022.6  0.00  0.00   0.000   0.009   26.2    61   18.1   26.8  10.97  .0728    116    1    100.0    5 
30/08/16  16:50   21.2   21.2   21.0    84   18.4   4.0     S   0.33   6.0     S   21.2   21.9   21.9  1022.5  0.00  0.00   0.000   0.010   26.2    61   18.1   26.8  10.97  .0728    116    1    100.0    5 
30/08/16  16:55   21.3   21.3   21.2    83   18.3   3.0     S   0.25   5.0     S   21.3   22.1   22.1  1022.4  0.00  0.00   0.000   0.010   26.1    60   17.7   26.7  10.79  .0729    116    1    100.0    5 
30/08/16  17:00   21.3   21.3   21.3    81   17.9   3.0     S   0.25   5.0     S   21.3   21.9   21.9  1022.4  0.00  0.00   0.000   0.010   26.1    60   17.7   26.7  10.79  .0729    115    1    100.0    5 
30/08/16  17:05   21.3   21.3   21.3    81   17.9   3.0     S   0.25   4.0     S   21.3   22.1   22.1  1022.4  0.00  0.00   0.000   0.010   26.1    61   18.0   26.8  10.97  .0728    116    1    100.0    5 
30/08/16  17:10   21.3   21.3   21.3    81   17.9   3.0     S   0.25   4.0     S   21.3   22.1   22.1  1022.3  0.00  0.00   0.000   0.010   26.1    60   17.7   26.7  10.79  .0729    117    1    100.0    5 
30/08/16  17:15   21.4   21.4   21.3    81   18.0   3.0   SSE   0.25   5.0     S   21.4   22.1   22.1  1022.3  0.00  0.00   0.000   0.011   26.1    60   17.7   26.7  10.79  .0729    117    1    100.0    5 
30/08/16  17:20   21.5   21.6   21.4    81   18.1   3.0   SSE   0.25   5.0   SSE   21.5   22.2   22.2  1022.2  0.00  0.00   0.000   0.011   26.1    61   18.0   26.8  10.97  .0728    116    1    100.0    5 
30/08/16  17:25   21.3   21.5   21.3    80   17.7   3.0   SSE   0.25   4.0   SSE   21.3   22.0   22.0  1022.2  0.00  0.00   0.000   0.010   26.1    61   18.0   26.8  10.97  .0728    117    1    100.0    5 
30/08/16  17:30   21.2   21.3   21.2    80   17.6   3.0     S   0.25   5.0     S   21.2   21.8   21.8  1022.2  0.00  0.00   0.000   0.010   26.1    61   18.0   26.8  10.97  .0728    117    1    100.0    5 
30/08/16  17:35   21.2   21.3   21.2    80   17.6   3.0   SSE   0.25   5.0     S   21.2   21.8   21.8  1022.2  0.00  0.00   0.000   0.010   26.2    61   18.1   26.8  10.97  .0728    116    1    100.0    5 
30/08/16  17:40   21.2   21.2   21.2    79   17.4   3.0     S   0.25   4.0     S   21.2   21.7   21.7  1022.3  0.00  0.00   0.000   0.010   26.2    61   18.1   26.8  10.97  .0728    118    1    100.0    5 
30/08/16  17:45   21.2   21.2   21.2    81   17.8   3.0     S   0.25   4.0     S   21.2   21.9   21.9  1022.2  0.00  0.00   0.000   0.010   26.2    61   18.1   26.8  10.97  .0728    117    1    100.0    5 
30/08/16  17:50   21.3   21.3   21.2    80   17.7   3.0     S   0.25   4.0   SSE   21.3   22.0   22.0  1022.2  0.00  0.00   0.000   0.010   26.2    61   18.1   26.8  10.97  .0728    116    1    100.0    5 
30/08/16  17:55   21.3   21.3   21.3    80   17.7   3.0     S   0.25   4.0     S   21.3   22.0   22.0  1022.3  0.00  0.00   0.000   0.010   26.2    60   17.8   26.8  10.78  .0728    117    1    100.0    5 
30/08/16  18:00   21.5   21.5   21.3    80   17.9   2.0     S   0.17   4.0     S   21.5   22.2   22.2  1022.2  0.00  0.00   0.000   0.011   26.2    60   17.8   26.8  10.79  .0728    116    1    100.0    5 
30/08/16  18:05   21.4   21.5   21.4    79   17.6   3.0     S   0.25   4.0     S   21.4   22.1   22.1  1022.2  0.00  0.00   0.000   0.011   26.2    60   17.8   26.8  10.79  .0728    117    1    100.0    5 
30/08/16  18:10   21.4   21.4   21.4    80   17.8   3.0     S   0.25   5.0     S   21.4   22.1   22.1  1022.1  0.00  0.00   0.000   0.011   26.1    60   17.7   26.7  10.79  .0728    117    1    100.0    5 
30/08/16  18:15   21.3   21.4   21.3    79   17.5   3.0     S   0.25   4.0     S   21.3   21.9   21.9  1022.2  0.00  0.00   0.000   0.010   26.1    60   17.7   26.7  10.79  .0728    117    1    100.0    5 
30/08/16  18:20   21.3   21.3   21.3    79   17.5   2.0     S   0.17   4.0     S   21.3   21.9   21.9  1022.0  0.00  0.00   0.000   0.010   26.1    60   17.7   26.7  10.79  .0728    117    1    100.0    5 
30/08/16  18:25   21.2   21.3   21.2    79   17.4   2.0     S   0.17   4.0     S   21.2   21.7   21.7  1022.0  0.00  0.00   0.000   0.010   26.1    60   17.7   26.7  10.79  .0728    117    1    100.0    5 
30/08/16  18:30   21.1   21.2   21.1    79   17.3   2.0     S   0.17   4.0     S   21.1   21.6   21.6  1022.0  0.00  0.00   0.000   0.009   26.1    60   17.7   26.7  10.79  .0729    117    1    100.0    5 
30/08/16  18:35   20.9   21.1   20.9    79   17.2   2.0     S   0.17   3.0     S   20.9   21.6   21.6  1021.9  0.00  0.00   0.000   0.009   26.1    60   17.7   26.7  10.79  .0728    117    1    100.0    5 
30/08/16  18:40   20.9   20.9   20.8    80   17.4   2.0     S   0.17   3.0     S   20.9   21.6   21.6  1021.8  0.00  0.00   0.000   0.009   26.1    60   17.7   26.7  10.79  .0728    115    1    100.0    5 
30/08/16  18:45   21.0   21.0   20.9    80   17.4   2.0     S   0.17   3.0     S   21.0   21.7   21.7  1021.9  0.00  0.00   0.000   0.009   26.1    60   17.7   26.7  10.79  .0728    117    1    100.0    5 
30/08/16  18:50   20.9   21.0   20.9    79   17.2   2.0     S   0.17   3.0     S   20.9   21.6   21.6  1021.9  0.00  0.00   0.000   0.009   26.1    61   17.9   26.7  10.97  .0728    116    1    100.0    5 
30/08/16  18:55   20.9   20.9   20.9    80   17.4   2.0     S   0.17   4.0     S   20.9   21.6   21.6  1021.9  0.00  0.00   0.000   0.009   26.1    61   18.0   26.8  10.97  .0728    117    1    100.0    5 
30/08/16  19:00   20.8   20.9   20.8    79   17.0   2.0     S   0.17   4.0     S   20.8   21.4   21.4  1021.9  0.00  0.00   0.000   0.008   26.2    61   18.1   26.8  10.97  .0728    116    1    100.0    5 
30/08/16  19:05   20.6   20.8   20.6    80   17.0   2.0     S   0.17   4.0     S   20.6   21.4   21.4  1021.9  0.00  0.00   0.000   0.008   26.2    61   18.1   26.9  10.97  .0728    117    1    100.0    5 
30/08/16  19:10   20.4   20.6   20.4    80   16.9   2.0     S   0.17   4.0     S   20.4   21.3   21.3  1021.9  0.00  0.00   0.000   0.007   26.3    60   17.9   26.9  10.78  .0728    117    1    100.0    5 
30/08/16  19:15   20.3   20.4   20.3    80   16.7   2.0     S   0.17   3.0     S   20.3   21.1   21.1  1021.9  0.00  0.00   0.000   0.007   26.3    60   17.9   27.0  10.77  .0728    117    1    100.0    5 
30/08/16  19:20   20.2   20.3   20.2    81   16.8   2.0     S   0.17   4.0     S   20.2   20.9   20.9  1021.9  0.00  0.00   0.000   0.006   26.3    60   17.9   27.0  10.77  .0728    117    1    100.0    5 
30/08/16  19:25   20.0   20.2   20.0    81   16.6   1.0     S   0.08   3.0     S   20.0   20.7   20.7  1021.9  0.00  0.00   0.000   0.006   26.4    60   18.0   27.1  10.77  .0727    117    1    100.0    5 
30/08/16  19:30   19.8   20.0   19.8    81   16.4   2.0     S   0.17   4.0     S   19.8   20.5   20.5  1021.9  0.00  0.00   0.000   0.005   26.4    60   18.1   27.1  10.77  .0727    117    1    100.0    5 
30/08/16  19:35   19.6   19.8   19.6    82   16.4   1.0     S   0.08   3.0     S   19.6   20.2   20.2  1021.9  0.00  0.00   0.000   0.004   26.4    60   18.1   27.1  10.77  .0727    117    1    100.0    5 
30/08/16  19:40   19.5   19.6   19.5    83   16.5   1.0     S   0.08   3.0     S   19.5   20.2   20.2  1022.0  0.00  0.00   0.000   0.004   26.5    60   18.1   27.2  10.76  .0727    116    1    100.0    5 
30/08/16  19:45   19.3   19.5   19.3    83   16.3   1.0     S   0.08   3.0     S   19.3   19.9   19.9  1021.8  0.00  0.00   0.000   0.003   26.6    59   17.9   27.2  10.56  .0727    118    1    100.0    5 
30/08/16  19:50   19.2   19.3   19.2    83   16.2   1.0     S   0.08   2.0     S   19.2   19.8   19.8  1021.8  0.00  0.00   0.000   0.003   26.6    59   17.9   27.3  10.55  .0727    117    1    100.0    5 
30/08/16  19:55   19.1   19.2   19.1    84   16.3   1.0     S   0.08   3.0     S   19.1   19.7   19.7  1021.8  0.00  0.00   0.000   0.003   26.7    59   18.0   27.3  10.55  .0727    117    1    100.0    5 
30/08/16  20:00   19.0   19.1   19.0    84   16.2   0.0   ---   0.00   0.0   ---   19.0   19.6   19.6  1021.8  0.00  0.00   0.000   0.002   26.7    58   17.8   27.3  10.35  .0727    116    1    100.0    5 
30/08/16  20:05   19.0   19.0   18.9    85   16.4   0.0     S   0.00   1.0     S   19.0   19.6   19.6  1021.8  0.00  0.00   0.000   0.002   26.8    58   17.8   27.4  10.35  .0727    116    1    100.0    5 
30/08/16  20:10   18.9   19.0   18.9    85   16.4   0.0   ---   0.00   0.0   ---   18.9   19.5   19.5  1021.8  0.00  0.00   0.000   0.002   26.8    58   17.9   27.5  10.35  .0726    117    1    100.0    5 
30/08/16  20:15   18.9   18.9   18.8    85   16.3   0.0   ---   0.00   0.0   ---   18.9   19.4   19.4  1021.8  0.00  0.00   0.000   0.002   26.8    58   17.9   27.5  10.35  .0726    117    1    100.0    5 
30/08/16  20:20   18.8   18.8   18.8    85   16.3   0.0   ---   0.00   0.0   ---   18.8   19.4   19.4  1021.8  0.00  0.00   0.000   0.002   26.8    58   17.9   27.5  10.35  .0726    117    1    100.0    5 
30/08/16  20:25   18.8   18.8   18.8    85   16.3   0.0   ---   0.00   0.0   ---   18.8   19.4   19.4  1021.8  0.00  0.00   0.000   0.002   26.9    57   17.7   27.5  10.16  .0726    114    1    100.0    5 
30/08/16  20:30   18.8   18.8   18.8    85   16.2   0.0   ---   0.00   0.0   ---   18.8   19.3   19.3  1021.8  0.00  0.00   0.000   0.002   26.9    57   17.7   27.5  10.16  .0726    116    1    100.0    5 
30/08/16  20:35   18.8   18.8   18.8    85   16.2   0.0   ---   0.00   0.0   ---   18.8   19.3   19.3  1021.7  0.00  0.00   0.000   0.002   26.9    57   17.7   27.6  10.16  .0726    117    1    100.0    5 
30/08/16  20:40   18.7   18.8   18.7    85   16.1   0.0   ---   0.00   0.0   ---   18.7   19.2   19.2  1021.7  0.00  0.00   0.000   0.001   26.9    57   17.7   27.6  10.16  .0726    117    1    100.0    5 
30/08/16  20:45   18.7   18.7   18.7    85   16.1   0.0   ---   0.00   0.0   ---   18.7   19.2   19.2  1021.7  0.00  0.00   0.000   0.001   27.0    57   17.8   27.6  10.16  .0726    117    1    100.0    5 
30/08/16  20:50   18.6   18.7   18.6    86   16.2   0.0   ---   0.00   0.0   ---   18.6   19.1   19.1  1021.8  0.00  0.00   0.000   0.001   26.9    56   17.4   27.4  10.05  .0726    117    1    100.0    5 
30/08/16  20:55   18.6   18.6   18.6    86   16.2   0.0   ---   0.00   0.0   ---   18.6   19.1   19.1  1021.7  0.00  0.00   0.000   0.001   27.0    56   17.5   27.6  10.05  .0726    117    1    100.0    5 
30/08/16  21:00   18.5   18.6   18.5    86   16.1   0.0   ---   0.00   0.0   ---   18.5   19.0   19.0  1021.7  0.00  0.00   0.000   0.001   27.0    56   17.5   27.6  10.05  .0726    116    1    100.0    5 
30/08/16  21:05   18.4   18.5   18.4    86   16.1   0.0   ---   0.00   0.0   ---   18.4   18.9   18.9  1021.6  0.00  0.00   0.000   0.000   27.0    56   17.5   27.6  10.05  .0726    117    1    100.0    5 
30/08/16  21:10   18.4   18.4   18.4    86   16.0   0.0   ---   0.00   0.0   ---   18.4   18.9   18.9  1021.6  0.00  0.00   0.000   0.000   27.0    56   17.5   27.6  10.05  .0726    116    1    100.0    5 
30/08/16  21:15   18.3   18.4   18.3    86   15.9   0.0   ---   0.00   0.0   ---   18.3   18.8   18.8  1021.6  0.00  0.00   0.000   0.000   27.0    56   17.5   27.6  10.05  .0726    117    1    100.0    5 
30/08/16  21:20   18.3   18.3   18.3    86   15.9   0.0   ---   0.00   0.0   ---   18.3   18.7   18.7  1021.6  0.00  0.00   0.000   0.000   27.0    56   17.5   27.6  10.05  .0726    117    1    100.0    5 
30/08/16  21:25   18.2   18.3   18.2    86   15.8   0.0   ---   0.00   0.0   ---   18.2   18.7   18.7  1021.6  0.00  0.00   0.000   0.000   27.0    56   17.5   27.6  10.05  .0726    116    1    100.0    5 
30/08/16  21:30   18.1   18.2   18.1    86   15.7   0.0   ---   0.00   0.0   ---   18.1   18.6   18.6  1021.6  0.00  0.00   0.001   0.000   27.0    55   17.2   27.4   9.85  .0726    117    1    100.0    5 
113096